<?xml version="1.0" encoding="UTF-8" standalone="no" ?>
<gpx xmlns="http://www.topografix.com/GPX/1/1" xmlns:xsi="http://www.w3.org/2001/XMLSchema-instance" xsi:schemaLocation="http://www.topografix.com/GPX/1/1 http://www.topografix.com/GPX/1/1/gpx.xsd" version="1.1" creator="VisuGPX - https://www.visugpx.com">
  <metadata>
    <name>le Pilhon crêtes de Luzet</name>
    <desc><![CDATA[File with points/tracks from Locus Map/3.24.3]]></desc>
  </metadata>
  <trk>
    <name><![CDATA[F26310 le Pilhon crêtes de Luzet RGEO JR]]></name>
    <trkseg>
      <trkpt lat="44.59332" lon="5.60075">
        <ele>1100.01</ele>
        <time>2017-07-11T05:12:34.000Z</time>
      </trkpt>
      <trkpt lat="44.59331" lon="5.60062">
        <ele>1100.23</ele>
        <time>2017-07-11T05:13:46.000Z</time>
      </trkpt>
      <trkpt lat="44.59329" lon="5.60049">
        <ele>1099.87</ele>
        <time>2017-07-11T05:14:14.000Z</time>
      </trkpt>
      <trkpt lat="44.59328" lon="5.60062">
        <ele>1099.51</ele>
        <time>2017-07-11T05:14:52.000Z</time>
      </trkpt>
      <trkpt lat="44.59322" lon="5.60072">
        <ele>1097.74</ele>
        <time>2017-07-11T05:15:04.000Z</time>
      </trkpt>
      <trkpt lat="44.59313" lon="5.60084">
        <ele>1095.28</ele>
        <time>2017-07-11T05:15:14.000Z</time>
      </trkpt>
      <trkpt lat="44.59305" lon="5.60094">
        <ele>1092.79</ele>
        <time>2017-07-11T05:15:26.000Z</time>
      </trkpt>
      <trkpt lat="44.59303" lon="5.6011">
        <ele>1091.45</ele>
        <time>2017-07-11T05:15:36.000Z</time>
      </trkpt>
      <trkpt lat="44.59311" lon="5.60118">
        <ele>1092.65</ele>
        <time>2017-07-11T05:15:51.000Z</time>
      </trkpt>
      <trkpt lat="44.59318" lon="5.60132">
        <ele>1093.29</ele>
        <time>2017-07-11T05:16:01.000Z</time>
      </trkpt>
      <trkpt lat="44.59322" lon="5.60147">
        <ele>1093.12</ele>
        <time>2017-07-11T05:16:11.000Z</time>
      </trkpt>
      <trkpt lat="44.5932" lon="5.60165">
        <ele>1091.32</ele>
        <time>2017-07-11T05:16:21.000Z</time>
      </trkpt>
      <trkpt lat="44.59316" lon="5.60179">
        <ele>1089.48</ele>
        <time>2017-07-11T05:16:31.000Z</time>
      </trkpt>
      <trkpt lat="44.5932" lon="5.60192">
        <ele>1089.12</ele>
        <time>2017-07-11T05:16:44.000Z</time>
      </trkpt>
      <trkpt lat="44.59339" lon="5.60199">
        <ele>1091.95</ele>
        <time>2017-07-11T05:16:54.000Z</time>
      </trkpt>
      <trkpt lat="44.59338" lon="5.60221">
        <ele>1089.43</ele>
        <time>2017-07-11T05:17:04.000Z</time>
      </trkpt>
      <trkpt lat="44.59339" lon="5.60235">
        <ele>1088.36</ele>
        <time>2017-07-11T05:17:17.000Z</time>
      </trkpt>
      <trkpt lat="44.59339" lon="5.60252">
        <ele>1087.54</ele>
        <time>2017-07-11T05:17:27.000Z</time>
      </trkpt>
      <trkpt lat="44.59344" lon="5.60266">
        <ele>1087.86</ele>
        <time>2017-07-11T05:17:37.000Z</time>
      </trkpt>
      <trkpt lat="44.59348" lon="5.60285">
        <ele>1088.36</ele>
        <time>2017-07-11T05:17:47.000Z</time>
      </trkpt>
      <trkpt lat="44.59342" lon="5.60295">
        <ele>1088.04</ele>
        <time>2017-07-11T05:17:59.000Z</time>
      </trkpt>
      <trkpt lat="44.59334" lon="5.60307">
        <ele>1087.98</ele>
        <time>2017-07-11T05:18:32.000Z</time>
      </trkpt>
      <trkpt lat="44.59324" lon="5.60316">
        <ele>1087.84</ele>
        <time>2017-07-11T05:18:42.000Z</time>
      </trkpt>
      <trkpt lat="44.59315" lon="5.60312">
        <ele>1086.96</ele>
        <time>2017-07-11T05:18:52.000Z</time>
      </trkpt>
      <trkpt lat="44.59302" lon="5.60322">
        <ele>1087.07</ele>
        <time>2017-07-11T05:19:02.000Z</time>
      </trkpt>
      <trkpt lat="44.59293" lon="5.60324">
        <ele>1086.95</ele>
        <time>2017-07-11T05:19:13.000Z</time>
      </trkpt>
      <trkpt lat="44.59283" lon="5.60333">
        <ele>1087.5</ele>
        <time>2017-07-11T05:19:23.000Z</time>
      </trkpt>
      <trkpt lat="44.59271" lon="5.60345">
        <ele>1088.45</ele>
        <time>2017-07-11T05:19:33.000Z</time>
      </trkpt>
      <trkpt lat="44.59264" lon="5.60354">
        <ele>1089.24</ele>
        <time>2017-07-11T05:19:44.000Z</time>
      </trkpt>
      <trkpt lat="44.59256" lon="5.6036">
        <ele>1089.9</ele>
        <time>2017-07-11T05:19:56.000Z</time>
      </trkpt>
      <trkpt lat="44.59247" lon="5.60362">
        <ele>1090.28</ele>
        <time>2017-07-11T05:20:07.000Z</time>
      </trkpt>
      <trkpt lat="44.59235" lon="5.60363">
        <ele>1091.05</ele>
        <time>2017-07-11T05:20:17.000Z</time>
      </trkpt>
      <trkpt lat="44.59224" lon="5.60358">
        <ele>1091.84</ele>
        <time>2017-07-11T05:20:27.000Z</time>
      </trkpt>
      <trkpt lat="44.59214" lon="5.60353">
        <ele>1092.79</ele>
        <time>2017-07-11T05:20:37.000Z</time>
      </trkpt>
      <trkpt lat="44.59206" lon="5.60346">
        <ele>1093.45</ele>
        <time>2017-07-11T05:20:47.000Z</time>
      </trkpt>
      <trkpt lat="44.59198" lon="5.60334">
        <ele>1093.83</ele>
        <time>2017-07-11T05:20:59.000Z</time>
      </trkpt>
      <trkpt lat="44.59187" lon="5.60332">
        <ele>1095.36</ele>
        <time>2017-07-11T05:21:09.000Z</time>
      </trkpt>
      <trkpt lat="44.59179" lon="5.60323">
        <ele>1095.66</ele>
        <time>2017-07-11T05:21:19.000Z</time>
      </trkpt>
      <trkpt lat="44.59168" lon="5.60316">
        <ele>1096.41</ele>
        <time>2017-07-11T05:21:30.000Z</time>
      </trkpt>
      <trkpt lat="44.59164" lon="5.60303">
        <ele>1095.45</ele>
        <time>2017-07-11T05:21:42.000Z</time>
      </trkpt>
      <trkpt lat="44.59158" lon="5.6029">
        <ele>1094.67</ele>
        <time>2017-07-11T05:21:52.000Z</time>
      </trkpt>
      <trkpt lat="44.59144" lon="5.60285">
        <ele>1095.99</ele>
        <time>2017-07-11T05:22:02.000Z</time>
      </trkpt>
      <trkpt lat="44.59141" lon="5.60273">
        <ele>1095.17</ele>
        <time>2017-07-11T05:22:13.000Z</time>
      </trkpt>
      <trkpt lat="44.59136" lon="5.60262">
        <ele>1094.77</ele>
        <time>2017-07-11T05:22:25.000Z</time>
      </trkpt>
      <trkpt lat="44.59126" lon="5.60255">
        <ele>1095.67</ele>
        <time>2017-07-11T05:22:35.000Z</time>
      </trkpt>
      <trkpt lat="44.59121" lon="5.60243">
        <ele>1095.53</ele>
        <time>2017-07-11T05:24:42.000Z</time>
      </trkpt>
      <trkpt lat="44.59109" lon="5.60237">
        <ele>1096.83</ele>
        <time>2017-07-11T05:24:52.000Z</time>
      </trkpt>
      <trkpt lat="44.59104" lon="5.60225">
        <ele>1096.27</ele>
        <time>2017-07-11T05:25:02.000Z</time>
      </trkpt>
      <trkpt lat="44.59098" lon="5.60215">
        <ele>1095.95</ele>
        <time>2017-07-11T05:25:12.000Z</time>
      </trkpt>
      <trkpt lat="44.5909" lon="5.60207">
        <ele>1095.62</ele>
        <time>2017-07-11T05:25:22.000Z</time>
      </trkpt>
      <trkpt lat="44.5908" lon="5.6021">
        <ele>1096.09</ele>
        <time>2017-07-11T05:25:32.000Z</time>
      </trkpt>
      <trkpt lat="44.59076" lon="5.60222">
        <ele>1097.17</ele>
        <time>2017-07-11T05:25:48.000Z</time>
      </trkpt>
      <trkpt lat="44.59069" lon="5.60231">
        <ele>1097.82</ele>
        <time>2017-07-11T05:26:02.000Z</time>
      </trkpt>
      <trkpt lat="44.59064" lon="5.60242">
        <ele>1098.53</ele>
        <time>2017-07-11T05:26:15.000Z</time>
      </trkpt>
      <trkpt lat="44.59056" lon="5.6025">
        <ele>1098.41</ele>
        <time>2017-07-11T05:26:29.000Z</time>
      </trkpt>
      <trkpt lat="44.59051" lon="5.60261">
        <ele>1098.96</ele>
        <time>2017-07-11T05:27:09.000Z</time>
      </trkpt>
      <trkpt lat="44.59042" lon="5.60289">
        <ele>1100.7</ele>
        <time>2017-07-11T05:27:19.000Z</time>
      </trkpt>
      <trkpt lat="44.59046" lon="5.60304">
        <ele>1102.72</ele>
        <time>2017-07-11T05:27:29.000Z</time>
      </trkpt>
      <trkpt lat="44.59055" lon="5.6031">
        <ele>1103.9</ele>
        <time>2017-07-11T05:27:46.000Z</time>
      </trkpt>
      <trkpt lat="44.59053" lon="5.60323">
        <ele>1104.83</ele>
        <time>2017-07-11T05:28:04.000Z</time>
      </trkpt>
      <trkpt lat="44.59059" lon="5.60336">
        <ele>1106</ele>
        <time>2017-07-11T05:28:14.000Z</time>
      </trkpt>
      <trkpt lat="44.59061" lon="5.60351">
        <ele>1106.63</ele>
        <time>2017-07-11T05:28:27.000Z</time>
      </trkpt>
      <trkpt lat="44.59067" lon="5.60366">
        <ele>1106.92</ele>
        <time>2017-07-11T05:28:37.000Z</time>
      </trkpt>
      <trkpt lat="44.5907" lon="5.60381">
        <ele>1106.98</ele>
        <time>2017-07-11T05:28:47.000Z</time>
      </trkpt>
      <trkpt lat="44.59068" lon="5.60394">
        <ele>1107.24</ele>
        <time>2017-07-11T05:28:57.000Z</time>
      </trkpt>
      <trkpt lat="44.59065" lon="5.60408">
        <ele>1107.93</ele>
        <time>2017-07-11T05:29:07.000Z</time>
      </trkpt>
      <trkpt lat="44.59072" lon="5.60417">
        <ele>1107.99</ele>
        <time>2017-07-11T05:29:17.000Z</time>
      </trkpt>
      <trkpt lat="44.59074" lon="5.60431">
        <ele>1108.7</ele>
        <time>2017-07-11T05:29:27.000Z</time>
      </trkpt>
      <trkpt lat="44.59076" lon="5.60444">
        <ele>1109.69</ele>
        <time>2017-07-11T05:29:37.000Z</time>
      </trkpt>
      <trkpt lat="44.59081" lon="5.60457">
        <ele>1110.26</ele>
        <time>2017-07-11T05:29:47.000Z</time>
      </trkpt>
      <trkpt lat="44.59083" lon="5.60471">
        <ele>1111.42</ele>
        <time>2017-07-11T05:29:58.000Z</time>
      </trkpt>
      <trkpt lat="44.59081" lon="5.60489">
        <ele>1113.92</ele>
        <time>2017-07-11T05:30:08.000Z</time>
      </trkpt>
      <trkpt lat="44.59092" lon="5.60491">
        <ele>1112.44</ele>
        <time>2017-07-11T05:30:18.000Z</time>
      </trkpt>
      <trkpt lat="44.59086" lon="5.60511">
        <ele>1116.13</ele>
        <time>2017-07-11T05:30:28.000Z</time>
      </trkpt>
      <trkpt lat="44.59091" lon="5.60523">
        <ele>1117.17</ele>
        <time>2017-07-11T05:30:42.000Z</time>
      </trkpt>
      <trkpt lat="44.59094" lon="5.60535">
        <ele>1118.73</ele>
        <time>2017-07-11T05:31:01.000Z</time>
      </trkpt>
      <trkpt lat="44.59099" lon="5.60547">
        <ele>1119.86</ele>
        <time>2017-07-11T05:31:13.000Z</time>
      </trkpt>
      <trkpt lat="44.59099" lon="5.6056">
        <ele>1122.22</ele>
        <time>2017-07-11T05:31:25.000Z</time>
      </trkpt>
      <trkpt lat="44.59095" lon="5.60575">
        <ele>1125.76</ele>
        <time>2017-07-11T05:32:05.000Z</time>
      </trkpt>
      <trkpt lat="44.591" lon="5.60585">
        <ele>1126.66</ele>
        <time>2017-07-11T05:32:16.000Z</time>
      </trkpt>
      <trkpt lat="44.59107" lon="5.60593">
        <ele>1126.4</ele>
        <time>2017-07-11T05:32:29.000Z</time>
      </trkpt>
      <trkpt lat="44.5911" lon="5.60605">
        <ele>1127.82</ele>
        <time>2017-07-11T05:32:39.000Z</time>
      </trkpt>
      <trkpt lat="44.59116" lon="5.60616">
        <ele>1128.56</ele>
        <time>2017-07-11T05:32:49.000Z</time>
      </trkpt>
      <trkpt lat="44.59116" lon="5.60629">
        <ele>1131.2</ele>
        <time>2017-07-11T05:33:04.000Z</time>
      </trkpt>
      <trkpt lat="44.59117" lon="5.60642">
        <ele>1133.56</ele>
        <time>2017-07-11T05:33:18.000Z</time>
      </trkpt>
      <trkpt lat="44.59126" lon="5.60652">
        <ele>1133.56</ele>
        <time>2017-07-11T05:33:30.000Z</time>
      </trkpt>
      <trkpt lat="44.59116" lon="5.60655">
        <ele>1136.34</ele>
        <time>2017-07-11T05:33:44.000Z</time>
      </trkpt>
      <trkpt lat="44.59125" lon="5.60662">
        <ele>1135.83</ele>
        <time>2017-07-11T05:34:29.000Z</time>
      </trkpt>
      <trkpt lat="44.59129" lon="5.60674">
        <ele>1137.28</ele>
        <time>2017-07-11T05:34:47.000Z</time>
      </trkpt>
      <trkpt lat="44.59131" lon="5.60687">
        <ele>1139.29</ele>
        <time>2017-07-11T05:35:00.000Z</time>
      </trkpt>
      <trkpt lat="44.59137" lon="5.60696">
        <ele>1139.74</ele>
        <time>2017-07-11T05:35:12.000Z</time>
      </trkpt>
      <trkpt lat="44.59143" lon="5.60706">
        <ele>1140.22</ele>
        <time>2017-07-11T05:35:23.000Z</time>
      </trkpt>
      <trkpt lat="44.59148" lon="5.60717">
        <ele>1141.41</ele>
        <time>2017-07-11T05:35:34.000Z</time>
      </trkpt>
      <trkpt lat="44.59154" lon="5.60727">
        <ele>1141.79</ele>
        <time>2017-07-11T05:35:49.000Z</time>
      </trkpt>
      <trkpt lat="44.59161" lon="5.60736">
        <ele>1141.85</ele>
        <time>2017-07-11T05:36:01.000Z</time>
      </trkpt>
      <trkpt lat="44.59162" lon="5.60751">
        <ele>1143.93</ele>
        <time>2017-07-11T05:36:13.000Z</time>
      </trkpt>
      <trkpt lat="44.59164" lon="5.60763">
        <ele>1145.46</ele>
        <time>2017-07-11T05:36:30.000Z</time>
      </trkpt>
      <trkpt lat="44.59168" lon="5.60775">
        <ele>1146.29</ele>
        <time>2017-07-11T05:36:43.000Z</time>
      </trkpt>
      <trkpt lat="44.59168" lon="5.60788">
        <ele>1148.19</ele>
        <time>2017-07-11T05:36:58.000Z</time>
      </trkpt>
      <trkpt lat="44.59171" lon="5.60801">
        <ele>1149.22</ele>
        <time>2017-07-11T05:37:10.000Z</time>
      </trkpt>
      <trkpt lat="44.59169" lon="5.60814">
        <ele>1151.22</ele>
        <time>2017-07-11T05:37:21.000Z</time>
      </trkpt>
      <trkpt lat="44.59165" lon="5.60826">
        <ele>1153.41</ele>
        <time>2017-07-11T05:37:57.000Z</time>
      </trkpt>
      <trkpt lat="44.59162" lon="5.60839">
        <ele>1155.73</ele>
        <time>2017-07-11T05:38:08.000Z</time>
      </trkpt>
      <trkpt lat="44.59156" lon="5.60849">
        <ele>1158.32</ele>
        <time>2017-07-11T05:38:20.000Z</time>
      </trkpt>
      <trkpt lat="44.59156" lon="5.60862">
        <ele>1159.66</ele>
        <time>2017-07-11T05:38:36.000Z</time>
      </trkpt>
      <trkpt lat="44.59151" lon="5.60873">
        <ele>1162.18</ele>
        <time>2017-07-11T05:38:47.000Z</time>
      </trkpt>
      <trkpt lat="44.59147" lon="5.60884">
        <ele>1164.47</ele>
        <time>2017-07-11T05:39:01.000Z</time>
      </trkpt>
      <trkpt lat="44.59145" lon="5.60898">
        <ele>1166.26</ele>
        <time>2017-07-11T05:39:18.000Z</time>
      </trkpt>
      <trkpt lat="44.5914" lon="5.60909">
        <ele>1169.13</ele>
        <time>2017-07-11T05:39:32.000Z</time>
      </trkpt>
      <trkpt lat="44.59136" lon="5.60922">
        <ele>1171.65</ele>
        <time>2017-07-11T05:39:44.000Z</time>
      </trkpt>
      <trkpt lat="44.59139" lon="5.60936">
        <ele>1171.92</ele>
        <time>2017-07-11T05:39:54.000Z</time>
      </trkpt>
      <trkpt lat="44.59131" lon="5.60943">
        <ele>1175.09</ele>
        <time>2017-07-11T05:40:05.000Z</time>
      </trkpt>
      <trkpt lat="44.59134" lon="5.60955">
        <ele>1175.2</ele>
        <time>2017-07-11T05:40:28.000Z</time>
      </trkpt>
      <trkpt lat="44.59132" lon="5.60968">
        <ele>1177.14</ele>
        <time>2017-07-11T05:40:42.000Z</time>
      </trkpt>
      <trkpt lat="44.59129" lon="5.60982">
        <ele>1179.21</ele>
        <time>2017-07-11T05:40:57.000Z</time>
      </trkpt>
      <trkpt lat="44.59131" lon="5.60997">
        <ele>1179.77</ele>
        <time>2017-07-11T05:41:07.000Z</time>
      </trkpt>
      <trkpt lat="44.59121" lon="5.61008">
        <ele>1183.96</ele>
        <time>2017-07-11T05:41:20.000Z</time>
      </trkpt>
      <trkpt lat="44.59122" lon="5.61021">
        <ele>1184.61</ele>
        <time>2017-07-11T05:41:45.000Z</time>
      </trkpt>
      <trkpt lat="44.59121" lon="5.61034">
        <ele>1185.9</ele>
        <time>2017-07-11T05:41:59.000Z</time>
      </trkpt>
      <trkpt lat="44.59124" lon="5.61045">
        <ele>1185.38</ele>
        <time>2017-07-11T05:42:12.000Z</time>
      </trkpt>
      <trkpt lat="44.59128" lon="5.61058">
        <ele>1185.08</ele>
        <time>2017-07-11T05:42:38.000Z</time>
      </trkpt>
      <trkpt lat="44.59131" lon="5.61071">
        <ele>1185.53</ele>
        <time>2017-07-11T05:44:26.000Z</time>
      </trkpt>
      <trkpt lat="44.59128" lon="5.61084">
        <ele>1187.55</ele>
        <time>2017-07-11T05:44:39.000Z</time>
      </trkpt>
      <trkpt lat="44.5913" lon="5.61097">
        <ele>1188.59</ele>
        <time>2017-07-11T05:44:58.000Z</time>
      </trkpt>
      <trkpt lat="44.59124" lon="5.61109">
        <ele>1191.97</ele>
        <time>2017-07-11T05:45:46.000Z</time>
      </trkpt>
      <trkpt lat="44.59122" lon="5.61142">
        <ele>1197.48</ele>
        <time>2017-07-11T05:45:56.000Z</time>
      </trkpt>
      <trkpt lat="44.59111" lon="5.61149">
        <ele>1202.3</ele>
        <time>2017-07-11T05:46:06.000Z</time>
      </trkpt>
      <trkpt lat="44.5914" lon="5.61153">
        <ele>1194.43</ele>
        <time>2017-07-11T05:46:16.000Z</time>
      </trkpt>
      <trkpt lat="44.59131" lon="5.61159">
        <ele>1197.51</ele>
        <time>2017-07-11T05:46:33.000Z</time>
      </trkpt>
      <trkpt lat="44.59129" lon="5.61172">
        <ele>1199.97</ele>
        <time>2017-07-11T05:46:51.000Z</time>
      </trkpt>
      <trkpt lat="44.59131" lon="5.61185">
        <ele>1201.13</ele>
        <time>2017-07-11T05:47:06.000Z</time>
      </trkpt>
      <trkpt lat="44.59141" lon="5.61183">
        <ele>1198.42</ele>
        <time>2017-07-11T05:47:20.000Z</time>
      </trkpt>
      <trkpt lat="44.59131" lon="5.61184">
        <ele>1200.96</ele>
        <time>2017-07-11T05:47:35.000Z</time>
      </trkpt>
      <trkpt lat="44.59144" lon="5.61189">
        <ele>1198.53</ele>
        <time>2017-07-11T05:47:45.000Z</time>
      </trkpt>
      <trkpt lat="44.59135" lon="5.61193">
        <ele>1200.94</ele>
        <time>2017-07-11T05:48:01.000Z</time>
      </trkpt>
      <trkpt lat="44.59132" lon="5.61208">
        <ele>1203.57</ele>
        <time>2017-07-11T05:48:27.000Z</time>
      </trkpt>
      <trkpt lat="44.59126" lon="5.61219">
        <ele>1206.33</ele>
        <time>2017-07-11T05:49:49.000Z</time>
      </trkpt>
      <trkpt lat="44.59118" lon="5.61226">
        <ele>1209.22</ele>
        <time>2017-07-11T05:50:04.000Z</time>
      </trkpt>
      <trkpt lat="44.59109" lon="5.61229">
        <ele>1212.1</ele>
        <time>2017-07-11T05:50:20.000Z</time>
      </trkpt>
      <trkpt lat="44.591" lon="5.61233">
        <ele>1215.44</ele>
        <time>2017-07-11T05:50:37.000Z</time>
      </trkpt>
      <trkpt lat="44.59094" lon="5.61242">
        <ele>1218.93</ele>
        <time>2017-07-11T05:50:58.000Z</time>
      </trkpt>
      <trkpt lat="44.59084" lon="5.61241">
        <ele>1222.9</ele>
        <time>2017-07-11T05:51:19.000Z</time>
      </trkpt>
      <trkpt lat="44.59089" lon="5.6123">
        <ele>1219.43</ele>
        <time>2017-07-11T05:51:37.000Z</time>
      </trkpt>
      <trkpt lat="44.59094" lon="5.61215">
        <ele>1216.14</ele>
        <time>2017-07-11T05:51:52.000Z</time>
      </trkpt>
      <trkpt lat="44.59089" lon="5.61202">
        <ele>1216.92</ele>
        <time>2017-07-11T05:52:09.000Z</time>
      </trkpt>
      <trkpt lat="44.59082" lon="5.61194">
        <ele>1219.44</ele>
        <time>2017-07-11T05:52:34.000Z</time>
      </trkpt>
      <trkpt lat="44.59072" lon="5.61179">
        <ele>1222.94</ele>
        <time>2017-07-11T05:52:44.000Z</time>
      </trkpt>
      <trkpt lat="44.59066" lon="5.61164">
        <ele>1224.41</ele>
        <time>2017-07-11T05:52:54.000Z</time>
      </trkpt>
      <trkpt lat="44.59058" lon="5.61156">
        <ele>1227.77</ele>
        <time>2017-07-11T05:53:04.000Z</time>
      </trkpt>
      <trkpt lat="44.59052" lon="5.61145">
        <ele>1229.26</ele>
        <time>2017-07-11T05:53:17.000Z</time>
      </trkpt>
      <trkpt lat="44.59053" lon="5.61132">
        <ele>1227.37</ele>
        <time>2017-07-11T05:53:28.000Z</time>
      </trkpt>
      <trkpt lat="44.59047" lon="5.61122">
        <ele>1229.56</ele>
        <time>2017-07-11T05:53:38.000Z</time>
      </trkpt>
      <trkpt lat="44.59042" lon="5.6111">
        <ele>1231.39</ele>
        <time>2017-07-11T05:53:49.000Z</time>
      </trkpt>
      <trkpt lat="44.5904" lon="5.61097">
        <ele>1230.42</ele>
        <time>2017-07-11T05:54:04.000Z</time>
      </trkpt>
      <trkpt lat="44.59039" lon="5.61083">
        <ele>1230.06</ele>
        <time>2017-07-11T05:54:16.000Z</time>
      </trkpt>
      <trkpt lat="44.59034" lon="5.61072">
        <ele>1231.77</ele>
        <time>2017-07-11T05:54:26.000Z</time>
      </trkpt>
      <trkpt lat="44.59031" lon="5.61058">
        <ele>1232.39</ele>
        <time>2017-07-11T05:54:36.000Z</time>
      </trkpt>
      <trkpt lat="44.59025" lon="5.61047">
        <ele>1234.95</ele>
        <time>2017-07-11T05:54:46.000Z</time>
      </trkpt>
      <trkpt lat="44.5902" lon="5.61035">
        <ele>1236.33</ele>
        <time>2017-07-11T05:55:00.000Z</time>
      </trkpt>
      <trkpt lat="44.59016" lon="5.61023">
        <ele>1237.12</ele>
        <time>2017-07-11T05:55:38.000Z</time>
      </trkpt>
      <trkpt lat="44.59012" lon="5.61011">
        <ele>1237.54</ele>
        <time>2017-07-11T05:55:53.000Z</time>
      </trkpt>
      <trkpt lat="44.59013" lon="5.60996">
        <ele>1234.46</ele>
        <time>2017-07-11T05:58:15.000Z</time>
      </trkpt>
      <trkpt lat="44.59012" lon="5.6098">
        <ele>1232.96</ele>
        <time>2017-07-11T05:58:25.000Z</time>
      </trkpt>
      <trkpt lat="44.59003" lon="5.60975">
        <ele>1238.2</ele>
        <time>2017-07-11T05:58:35.000Z</time>
      </trkpt>
      <trkpt lat="44.58996" lon="5.60963">
        <ele>1240.62</ele>
        <time>2017-07-11T05:59:18.000Z</time>
      </trkpt>
      <trkpt lat="44.58988" lon="5.60948">
        <ele>1243.45</ele>
        <time>2017-07-11T05:59:28.000Z</time>
      </trkpt>
      <trkpt lat="44.58986" lon="5.60936">
        <ele>1242.06</ele>
        <time>2017-07-11T05:59:43.000Z</time>
      </trkpt>
      <trkpt lat="44.58983" lon="5.60924">
        <ele>1241.89</ele>
        <time>2017-07-11T05:59:53.000Z</time>
      </trkpt>
      <trkpt lat="44.58978" lon="5.60913">
        <ele>1243.41</ele>
        <time>2017-07-11T06:00:05.000Z</time>
      </trkpt>
      <trkpt lat="44.58975" lon="5.60927">
        <ele>1247.87</ele>
        <time>2017-07-11T06:01:44.000Z</time>
      </trkpt>
      <trkpt lat="44.58974" lon="5.6094">
        <ele>1251.62</ele>
        <time>2017-07-11T06:01:54.000Z</time>
      </trkpt>
      <trkpt lat="44.58974" lon="5.60954">
        <ele>1254.46</ele>
        <time>2017-07-11T06:02:06.000Z</time>
      </trkpt>
      <trkpt lat="44.5898" lon="5.60964">
        <ele>1252.1</ele>
        <time>2017-07-11T06:02:16.000Z</time>
      </trkpt>
      <trkpt lat="44.58976" lon="5.60979">
        <ele>1258.73</ele>
        <time>2017-07-11T06:02:26.000Z</time>
      </trkpt>
      <trkpt lat="44.58983" lon="5.60987">
        <ele>1254.87</ele>
        <time>2017-07-11T06:02:36.000Z</time>
      </trkpt>
      <trkpt lat="44.58985" lon="5.61001">
        <ele>1255.79</ele>
        <time>2017-07-11T06:02:52.000Z</time>
      </trkpt>
      <trkpt lat="44.58986" lon="5.61015">
        <ele>1257.55</ele>
        <time>2017-07-11T06:03:09.000Z</time>
      </trkpt>
      <trkpt lat="44.58982" lon="5.61027">
        <ele>1262.7</ele>
        <time>2017-07-11T06:03:21.000Z</time>
      </trkpt>
      <trkpt lat="44.58979" lon="5.61039">
        <ele>1267.88</ele>
        <time>2017-07-11T06:03:34.000Z</time>
      </trkpt>
      <trkpt lat="44.58985" lon="5.61049">
        <ele>1264.87</ele>
        <time>2017-07-11T06:03:45.000Z</time>
      </trkpt>
      <trkpt lat="44.58985" lon="5.61063">
        <ele>1267.3</ele>
        <time>2017-07-11T06:03:57.000Z</time>
      </trkpt>
      <trkpt lat="44.58982" lon="5.61076">
        <ele>1271.73</ele>
        <time>2017-07-11T06:04:08.000Z</time>
      </trkpt>
      <trkpt lat="44.58986" lon="5.61088">
        <ele>1269.91</ele>
        <time>2017-07-11T06:04:47.000Z</time>
      </trkpt>
      <trkpt lat="44.58989" lon="5.61104">
        <ele>1269.22</ele>
        <time>2017-07-11T06:04:57.000Z</time>
      </trkpt>
      <trkpt lat="44.58987" lon="5.61117">
        <ele>1272.43</ele>
        <time>2017-07-11T06:05:09.000Z</time>
      </trkpt>
      <trkpt lat="44.58989" lon="5.6113">
        <ele>1272.23</ele>
        <time>2017-07-11T06:05:48.000Z</time>
      </trkpt>
      <trkpt lat="44.58982" lon="5.61148">
        <ele>1279.83</ele>
        <time>2017-07-11T06:05:58.000Z</time>
      </trkpt>
      <trkpt lat="44.58985" lon="5.61163">
        <ele>1278.47</ele>
        <time>2017-07-11T06:06:08.000Z</time>
      </trkpt>
      <trkpt lat="44.58987" lon="5.6118">
        <ele>1279.15</ele>
        <time>2017-07-11T06:06:51.000Z</time>
      </trkpt>
      <trkpt lat="44.58987" lon="5.612">
        <ele>1280.95</ele>
        <time>2017-07-11T06:07:01.000Z</time>
      </trkpt>
      <trkpt lat="44.58993" lon="5.6121">
        <ele>1277.11</ele>
        <time>2017-07-11T06:07:11.000Z</time>
      </trkpt>
      <trkpt lat="44.58989" lon="5.61223">
        <ele>1281.88</ele>
        <time>2017-07-11T06:07:21.000Z</time>
      </trkpt>
      <trkpt lat="44.58989" lon="5.61236">
        <ele>1283.3</ele>
        <time>2017-07-11T06:07:36.000Z</time>
      </trkpt>
      <trkpt lat="44.58984" lon="5.61248">
        <ele>1288.46</ele>
        <time>2017-07-11T06:07:47.000Z</time>
      </trkpt>
      <trkpt lat="44.5899" lon="5.61258">
        <ele>1285.1</ele>
        <time>2017-07-11T06:07:59.000Z</time>
      </trkpt>
      <trkpt lat="44.58985" lon="5.61272">
        <ele>1289.5</ele>
        <time>2017-07-11T06:08:09.000Z</time>
      </trkpt>
      <trkpt lat="44.58996" lon="5.61276">
        <ele>1281.82</ele>
        <time>2017-07-11T06:08:19.000Z</time>
      </trkpt>
      <trkpt lat="44.59013" lon="5.613">
        <ele>1272.72</ele>
        <time>2017-07-11T06:08:29.000Z</time>
      </trkpt>
      <trkpt lat="44.59003" lon="5.61305">
        <ele>1279.48</ele>
        <time>2017-07-11T06:08:42.000Z</time>
      </trkpt>
      <trkpt lat="44.58996" lon="5.61314">
        <ele>1285.31</ele>
        <time>2017-07-11T06:08:53.000Z</time>
      </trkpt>
      <trkpt lat="44.58987" lon="5.6133">
        <ele>1293.23</ele>
        <time>2017-07-11T06:09:07.000Z</time>
      </trkpt>
      <trkpt lat="44.58981" lon="5.61342">
        <ele>1298.45</ele>
        <time>2017-07-11T06:09:27.000Z</time>
      </trkpt>
      <trkpt lat="44.58982" lon="5.61355">
        <ele>1300.11</ele>
        <time>2017-07-11T06:09:42.000Z</time>
      </trkpt>
      <trkpt lat="44.58988" lon="5.61365">
        <ele>1298.48</ele>
        <time>2017-07-11T06:10:37.000Z</time>
      </trkpt>
      <trkpt lat="44.58983" lon="5.6138">
        <ele>1304.33</ele>
        <time>2017-07-11T06:10:47.000Z</time>
      </trkpt>
      <trkpt lat="44.58978" lon="5.61368">
        <ele>1304.77</ele>
        <time>2017-07-11T06:11:17.000Z</time>
      </trkpt>
      <trkpt lat="44.58972" lon="5.61358">
        <ele>1306.98</ele>
        <time>2017-07-11T06:11:27.000Z</time>
      </trkpt>
      <trkpt lat="44.58968" lon="5.61347">
        <ele>1308.25</ele>
        <time>2017-07-11T06:11:41.000Z</time>
      </trkpt>
      <trkpt lat="44.58957" lon="5.61347">
        <ele>1315.52</ele>
        <time>2017-07-11T06:11:51.000Z</time>
      </trkpt>
      <trkpt lat="44.58969" lon="5.6133">
        <ele>1305.3</ele>
        <time>2017-07-11T06:12:01.000Z</time>
      </trkpt>
      <trkpt lat="44.58974" lon="5.61319">
        <ele>1300.65</ele>
        <time>2017-07-11T06:12:16.000Z</time>
      </trkpt>
      <trkpt lat="44.58971" lon="5.61305">
        <ele>1301.56</ele>
        <time>2017-07-11T06:12:27.000Z</time>
      </trkpt>
      <trkpt lat="44.58969" lon="5.61292">
        <ele>1302.26</ele>
        <time>2017-07-11T06:12:40.000Z</time>
      </trkpt>
      <trkpt lat="44.58962" lon="5.61284">
        <ele>1307.43</ele>
        <time>2017-07-11T06:14:01.000Z</time>
      </trkpt>
      <trkpt lat="44.58952" lon="5.61305">
        <ele>1315.52</ele>
        <time>2017-07-11T06:14:11.000Z</time>
      </trkpt>
      <trkpt lat="44.58941" lon="5.61311">
        <ele>1323.78</ele>
        <time>2017-07-11T06:14:21.000Z</time>
      </trkpt>
      <trkpt lat="44.5894" lon="5.61324">
        <ele>1325.79</ele>
        <time>2017-07-11T06:14:37.000Z</time>
      </trkpt>
      <trkpt lat="44.58935" lon="5.61336">
        <ele>1329.77</ele>
        <time>2017-07-11T06:14:54.000Z</time>
      </trkpt>
      <trkpt lat="44.58933" lon="5.6135">
        <ele>1332.55</ele>
        <time>2017-07-11T06:15:04.000Z</time>
      </trkpt>
      <trkpt lat="44.5893" lon="5.61364">
        <ele>1335.32</ele>
        <time>2017-07-11T06:15:15.000Z</time>
      </trkpt>
      <trkpt lat="44.58932" lon="5.61377">
        <ele>1335.33</ele>
        <time>2017-07-11T06:15:41.000Z</time>
      </trkpt>
      <trkpt lat="44.58931" lon="5.61394">
        <ele>1338.35</ele>
        <time>2017-07-11T06:16:03.000Z</time>
      </trkpt>
      <trkpt lat="44.5893" lon="5.61412">
        <ele>1341.28</ele>
        <time>2017-07-11T06:16:13.000Z</time>
      </trkpt>
      <trkpt lat="44.5894" lon="5.61414">
        <ele>1336.31</ele>
        <time>2017-07-11T06:16:24.000Z</time>
      </trkpt>
      <trkpt lat="44.58944" lon="5.61428">
        <ele>1336.98</ele>
        <time>2017-07-11T06:16:40.000Z</time>
      </trkpt>
      <trkpt lat="44.58952" lon="5.61439">
        <ele>1335.4</ele>
        <time>2017-07-11T06:16:50.000Z</time>
      </trkpt>
      <trkpt lat="44.58954" lon="5.61457">
        <ele>1339.57</ele>
        <time>2017-07-11T06:17:00.000Z</time>
      </trkpt>
      <trkpt lat="44.58969" lon="5.61447">
        <ele>1328.89</ele>
        <time>2017-07-11T06:17:10.000Z</time>
      </trkpt>
      <trkpt lat="44.58971" lon="5.61461">
        <ele>1331.89</ele>
        <time>2017-07-11T06:17:24.000Z</time>
      </trkpt>
      <trkpt lat="44.5898" lon="5.61461">
        <ele>1327.25</ele>
        <time>2017-07-11T06:17:45.000Z</time>
      </trkpt>
      <trkpt lat="44.58983" lon="5.61474">
        <ele>1329.98</ele>
        <time>2017-07-11T06:18:26.000Z</time>
      </trkpt>
      <trkpt lat="44.58985" lon="5.61493">
        <ele>1334.46</ele>
        <time>2017-07-11T06:18:36.000Z</time>
      </trkpt>
      <trkpt lat="44.58992" lon="5.61502">
        <ele>1333.31</ele>
        <time>2017-07-11T06:18:47.000Z</time>
      </trkpt>
      <trkpt lat="44.59" lon="5.61512">
        <ele>1331.97</ele>
        <time>2017-07-11T06:19:03.000Z</time>
      </trkpt>
      <trkpt lat="44.59012" lon="5.61512">
        <ele>1326.42</ele>
        <time>2017-07-11T06:19:13.000Z</time>
      </trkpt>
      <trkpt lat="44.59026" lon="5.61522">
        <ele>1322.38</ele>
        <time>2017-07-11T06:19:23.000Z</time>
      </trkpt>
      <trkpt lat="44.5902" lon="5.61538">
        <ele>1329.33</ele>
        <time>2017-07-11T06:19:33.000Z</time>
      </trkpt>
      <trkpt lat="44.59029" lon="5.61542">
        <ele>1326.26</ele>
        <time>2017-07-11T06:19:48.000Z</time>
      </trkpt>
      <trkpt lat="44.59032" lon="5.61554">
        <ele>1327.98</ele>
        <time>2017-07-11T06:20:30.000Z</time>
      </trkpt>
      <trkpt lat="44.59037" lon="5.61567">
        <ele>1328.54</ele>
        <time>2017-07-11T06:20:41.000Z</time>
      </trkpt>
      <trkpt lat="44.59039" lon="5.61582">
        <ele>1330.52</ele>
        <time>2017-07-11T06:21:56.000Z</time>
      </trkpt>
      <trkpt lat="44.59032" lon="5.61596">
        <ele>1334.91</ele>
        <time>2017-07-11T06:24:50.000Z</time>
      </trkpt>
      <trkpt lat="44.5901" lon="5.61625">
        <ele>1344.05</ele>
        <time>2017-07-11T06:25:00.000Z</time>
      </trkpt>
      <trkpt lat="44.59003" lon="5.61642">
        <ele>1346.11</ele>
        <time>2017-07-11T06:28:19.000Z</time>
      </trkpt>
      <trkpt lat="44.58972" lon="5.6168">
        <ele>1358.21</ele>
        <time>2017-07-11T06:28:29.000Z</time>
      </trkpt>
      <trkpt lat="44.5896" lon="5.61702">
        <ele>1362.31</ele>
        <time>2017-07-11T06:28:39.000Z</time>
      </trkpt>
      <trkpt lat="44.58951" lon="5.61712">
        <ele>1364.85</ele>
        <time>2017-07-11T06:28:49.000Z</time>
      </trkpt>
      <trkpt lat="44.58953" lon="5.61699">
        <ele>1364.99</ele>
        <time>2017-07-11T06:29:01.000Z</time>
      </trkpt>
      <trkpt lat="44.58986" lon="5.61667">
        <ele>1352.55</ele>
        <time>2017-07-11T06:29:11.000Z</time>
      </trkpt>
      <trkpt lat="44.58974" lon="5.61686">
        <ele>1357.5</ele>
        <time>2017-07-11T06:29:21.000Z</time>
      </trkpt>
      <trkpt lat="44.58966" lon="5.61693">
        <ele>1360.42</ele>
        <time>2017-07-11T06:30:17.990Z</time>
      </trkpt>
      <trkpt lat="44.5895" lon="5.61695">
        <ele>1366.78</ele>
        <time>2017-07-11T06:30:26.992Z</time>
      </trkpt>
      <trkpt lat="44.58935" lon="5.61718">
        <ele>1369.94</ele>
        <time>2017-07-11T06:30:36.988Z</time>
      </trkpt>
      <trkpt lat="44.58922" lon="5.61725">
        <ele>1373.36</ele>
        <time>2017-07-11T06:30:46.985Z</time>
      </trkpt>
      <trkpt lat="44.5892" lon="5.61738">
        <ele>1372.87</ele>
        <time>2017-07-11T06:31:03.984Z</time>
      </trkpt>
      <trkpt lat="44.58912" lon="5.61746">
        <ele>1374.84</ele>
        <time>2017-07-11T06:32:30.000Z</time>
      </trkpt>
      <trkpt lat="44.58913" lon="5.61733">
        <ele>1375.6</ele>
        <time>2017-07-11T06:32:40.000Z</time>
      </trkpt>
      <trkpt lat="44.58904" lon="5.61763">
        <ele>1376.94</ele>
        <time>2017-07-11T06:32:50.000Z</time>
      </trkpt>
      <trkpt lat="44.589" lon="5.61751">
        <ele>1378.55</ele>
        <time>2017-07-11T06:36:24.990Z</time>
      </trkpt>
      <trkpt lat="44.58881" lon="5.61759">
        <ele>1384.67</ele>
        <time>2017-07-11T06:36:34.990Z</time>
      </trkpt>
      <trkpt lat="44.58871" lon="5.6175">
        <ele>1388.95</ele>
        <time>2017-07-11T06:36:44.986Z</time>
      </trkpt>
      <trkpt lat="44.58859" lon="5.61754">
        <ele>1392.92</ele>
        <time>2017-07-11T06:37:07.983Z</time>
      </trkpt>
      <trkpt lat="44.58849" lon="5.61748">
        <ele>1397.13</ele>
        <time>2017-07-11T06:39:20.969Z</time>
      </trkpt>
      <trkpt lat="44.58839" lon="5.61751">
        <ele>1400.81</ele>
        <time>2017-07-11T06:39:29.986Z</time>
      </trkpt>
      <trkpt lat="44.58829" lon="5.61753">
        <ele>1404.35</ele>
        <time>2017-07-11T06:43:06.983Z</time>
      </trkpt>
      <trkpt lat="44.58818" lon="5.61762">
        <ele>1408.46</ele>
        <time>2017-07-11T06:43:16.983Z</time>
      </trkpt>
      <trkpt lat="44.58808" lon="5.61756">
        <ele>1412.62</ele>
        <time>2017-07-11T06:43:28.951Z</time>
      </trkpt>
      <trkpt lat="44.5882" lon="5.61757">
        <ele>1407.77</ele>
        <time>2017-07-11T06:43:39.989Z</time>
      </trkpt>
      <trkpt lat="44.5881" lon="5.61755">
        <ele>1411.96</ele>
        <time>2017-07-11T06:43:48.991Z</time>
      </trkpt>
      <trkpt lat="44.58807" lon="5.61743">
        <ele>1414.03</ele>
        <time>2017-07-11T06:44:38.987Z</time>
      </trkpt>
      <trkpt lat="44.58796" lon="5.61746">
        <ele>1418.31</ele>
        <time>2017-07-11T06:44:53.987Z</time>
      </trkpt>
      <trkpt lat="44.58785" lon="5.61743">
        <ele>1423.18</ele>
        <time>2017-07-11T06:45:03.985Z</time>
      </trkpt>
      <trkpt lat="44.58787" lon="5.61756">
        <ele>1421.5</ele>
        <time>2017-07-11T06:45:15.968Z</time>
      </trkpt>
      <trkpt lat="44.58777" lon="5.6175">
        <ele>1425.81</ele>
        <time>2017-07-11T06:55:29.989Z</time>
      </trkpt>
      <trkpt lat="44.58761" lon="5.61746">
        <ele>1432.95</ele>
        <time>2017-07-11T06:55:39.985Z</time>
      </trkpt>
      <trkpt lat="44.5875" lon="5.61752">
        <ele>1436.82</ele>
        <time>2017-07-11T06:55:49.984Z</time>
      </trkpt>
      <trkpt lat="44.58742" lon="5.61747">
        <ele>1440.49</ele>
        <time>2017-07-11T06:56:05.947Z</time>
      </trkpt>
      <trkpt lat="44.58733" lon="5.61746">
        <ele>1444.03</ele>
        <time>2017-07-11T06:56:22.951Z</time>
      </trkpt>
      <trkpt lat="44.58723" lon="5.61741">
        <ele>1447.83</ele>
        <time>2017-07-11T06:56:45.984Z</time>
      </trkpt>
      <trkpt lat="44.58717" lon="5.61751">
        <ele>1449.76</ele>
        <time>2017-07-11T06:57:47.947Z</time>
      </trkpt>
      <trkpt lat="44.58699" lon="5.61764">
        <ele>1456.81</ele>
        <time>2017-07-11T06:57:56.953Z</time>
      </trkpt>
      <trkpt lat="44.5869" lon="5.61757">
        <ele>1460.49</ele>
        <time>2017-07-11T07:02:51.000Z</time>
      </trkpt>
      <trkpt lat="44.58668" lon="5.61759">
        <ele>1469.89</ele>
        <time>2017-07-11T07:03:01.000Z</time>
      </trkpt>
      <trkpt lat="44.58642" lon="5.61757">
        <ele>1481.45</ele>
        <time>2017-07-11T07:03:11.000Z</time>
      </trkpt>
      <trkpt lat="44.58633" lon="5.61753">
        <ele>1485.37</ele>
        <time>2017-07-11T07:03:26.000Z</time>
      </trkpt>
      <trkpt lat="44.58643" lon="5.61749">
        <ele>1480.66</ele>
        <time>2017-07-11T07:03:36.000Z</time>
      </trkpt>
      <trkpt lat="44.58652" lon="5.61741">
        <ele>1476.02</ele>
        <time>2017-07-11T07:03:46.000Z</time>
      </trkpt>
      <trkpt lat="44.5868" lon="5.61762">
        <ele>1464.83</ele>
        <time>2017-07-11T07:03:56.000Z</time>
      </trkpt>
      <trkpt lat="44.58642" lon="5.61755">
        <ele>1481.14</ele>
        <time>2017-07-11T07:04:06.000Z</time>
      </trkpt>
      <trkpt lat="44.58632" lon="5.61746">
        <ele>1485.54</ele>
        <time>2017-07-11T07:04:17.000Z</time>
      </trkpt>
      <trkpt lat="44.58646" lon="5.61734">
        <ele>1478.96</ele>
        <time>2017-07-11T07:04:27.000Z</time>
      </trkpt>
      <trkpt lat="44.58651" lon="5.61745">
        <ele>1476.51</ele>
        <time>2017-07-11T07:04:40.000Z</time>
      </trkpt>
      <trkpt lat="44.58643" lon="5.61737">
        <ele>1479.97</ele>
        <time>2017-07-11T07:04:51.000Z</time>
      </trkpt>
      <trkpt lat="44.58644" lon="5.61751">
        <ele>1480.32</ele>
        <time>2017-07-11T07:08:23.000Z</time>
      </trkpt>
      <trkpt lat="44.58637" lon="5.61741">
        <ele>1482.97</ele>
        <time>2017-07-11T07:08:50.000Z</time>
      </trkpt>
      <trkpt lat="44.58628" lon="5.61737">
        <ele>1486.86</ele>
        <time>2017-07-11T07:09:00.000Z</time>
      </trkpt>
      <trkpt lat="44.58638" lon="5.6174">
        <ele>1482.56</ele>
        <time>2017-07-11T07:09:10.000Z</time>
      </trkpt>
      <trkpt lat="44.5863" lon="5.61733">
        <ele>1485.87</ele>
        <time>2017-07-11T07:10:40.000Z</time>
      </trkpt>
      <trkpt lat="44.5862" lon="5.61733">
        <ele>1490.09</ele>
        <time>2017-07-11T07:10:52.000Z</time>
      </trkpt>
      <trkpt lat="44.58614" lon="5.61723">
        <ele>1492.49</ele>
        <time>2017-07-11T07:11:55.000Z</time>
      </trkpt>
      <trkpt lat="44.58609" lon="5.61712">
        <ele>1494.48</ele>
        <time>2017-07-11T07:12:06.000Z</time>
      </trkpt>
      <trkpt lat="44.58596" lon="5.61717">
        <ele>1499.91</ele>
        <time>2017-07-11T07:12:16.000Z</time>
      </trkpt>
      <trkpt lat="44.58586" lon="5.6171">
        <ele>1503.77</ele>
        <time>2017-07-11T07:12:29.000Z</time>
      </trkpt>
      <trkpt lat="44.58577" lon="5.61703">
        <ele>1507.13</ele>
        <time>2017-07-11T07:12:40.000Z</time>
      </trkpt>
      <trkpt lat="44.58567" lon="5.61705">
        <ele>1510.91</ele>
        <time>2017-07-11T07:13:09.000Z</time>
      </trkpt>
      <trkpt lat="44.58562" lon="5.61694">
        <ele>1512.68</ele>
        <time>2017-07-11T07:14:27.000Z</time>
      </trkpt>
      <trkpt lat="44.58552" lon="5.61684">
        <ele>1516.24</ele>
        <time>2017-07-11T07:14:37.000Z</time>
      </trkpt>
      <trkpt lat="44.58542" lon="5.61688">
        <ele>1519.7</ele>
        <time>2017-07-11T07:15:16.000Z</time>
      </trkpt>
      <trkpt lat="44.58533" lon="5.61686">
        <ele>1522.65</ele>
        <time>2017-07-11T07:15:27.000Z</time>
      </trkpt>
      <trkpt lat="44.58524" lon="5.61681">
        <ele>1525.31</ele>
        <time>2017-07-11T07:17:40.000Z</time>
      </trkpt>
      <trkpt lat="44.58496" lon="5.6167">
        <ele>1531.98</ele>
        <time>2017-07-11T07:17:50.000Z</time>
      </trkpt>
      <trkpt lat="44.58489" lon="5.61658">
        <ele>1532.99</ele>
        <time>2017-07-11T07:18:00.000Z</time>
      </trkpt>
      <trkpt lat="44.58489" lon="5.61643">
        <ele>1532.82</ele>
        <time>2017-07-11T07:18:11.000Z</time>
      </trkpt>
      <trkpt lat="44.58484" lon="5.61632">
        <ele>1533.77</ele>
        <time>2017-07-11T07:19:07.000Z</time>
      </trkpt>
      <trkpt lat="44.58478" lon="5.61624">
        <ele>1534.67</ele>
        <time>2017-07-11T07:23:53.000Z</time>
      </trkpt>
      <trkpt lat="44.58471" lon="5.61614">
        <ele>1535.28</ele>
        <time>2017-07-11T07:24:34.000Z</time>
      </trkpt>
      <trkpt lat="44.58463" lon="5.61605">
        <ele>1535.52</ele>
        <time>2017-07-11T07:24:44.000Z</time>
      </trkpt>
      <trkpt lat="44.58462" lon="5.6162">
        <ele>1535.42</ele>
        <time>2017-07-11T07:29:14.000Z</time>
      </trkpt>
      <trkpt lat="44.58463" lon="5.61636">
        <ele>1535.78</ele>
        <time>2017-07-11T07:29:24.000Z</time>
      </trkpt>
      <trkpt lat="44.58462" lon="5.61652">
        <ele>1536.76</ele>
        <time>2017-07-11T07:30:38.000Z</time>
      </trkpt>
      <trkpt lat="44.58462" lon="5.61669">
        <ele>1538.65</ele>
        <time>2017-07-11T07:30:48.000Z</time>
      </trkpt>
      <trkpt lat="44.58464" lon="5.61682">
        <ele>1540.36</ele>
        <time>2017-07-11T07:31:06.000Z</time>
      </trkpt>
      <trkpt lat="44.58473" lon="5.61685">
        <ele>1539.02</ele>
        <time>2017-07-11T07:31:45.000Z</time>
      </trkpt>
      <trkpt lat="44.58478" lon="5.61671">
        <ele>1535.88</ele>
        <time>2017-07-11T07:32:35.000Z</time>
      </trkpt>
      <trkpt lat="44.58473" lon="5.61645">
        <ele>1535.14</ele>
        <time>2017-07-11T07:32:45.000Z</time>
      </trkpt>
      <trkpt lat="44.58464" lon="5.6164">
        <ele>1535.88</ele>
        <time>2017-07-11T07:32:56.000Z</time>
      </trkpt>
      <trkpt lat="44.58457" lon="5.61631">
        <ele>1535.91</ele>
        <time>2017-07-11T07:33:11.000Z</time>
      </trkpt>
      <trkpt lat="44.58456" lon="5.61649">
        <ele>1537.24</ele>
        <time>2017-07-11T07:36:56.000Z</time>
      </trkpt>
      <trkpt lat="44.58448" lon="5.61661">
        <ele>1539.54</ele>
        <time>2017-07-11T07:37:06.000Z</time>
      </trkpt>
      <trkpt lat="44.58444" lon="5.61676">
        <ele>1542.44</ele>
        <time>2017-07-11T07:38:09.000Z</time>
      </trkpt>
      <trkpt lat="44.58438" lon="5.61689">
        <ele>1546.52</ele>
        <time>2017-07-11T07:38:19.000Z</time>
      </trkpt>
      <trkpt lat="44.58432" lon="5.61699">
        <ele>1550.15</ele>
        <time>2017-07-11T07:38:53.000Z</time>
      </trkpt>
      <trkpt lat="44.58425" lon="5.61709">
        <ele>1554.08</ele>
        <time>2017-07-11T07:39:38.000Z</time>
      </trkpt>
      <trkpt lat="44.58423" lon="5.61723">
        <ele>1558.97</ele>
        <time>2017-07-11T07:39:55.000Z</time>
      </trkpt>
      <trkpt lat="44.58431" lon="5.61729">
        <ele>1559.27</ele>
        <time>2017-07-11T07:40:52.000Z</time>
      </trkpt>
      <trkpt lat="44.58431" lon="5.61743">
        <ele>1563.24</ele>
        <time>2017-07-11T07:41:28.000Z</time>
      </trkpt>
      <trkpt lat="44.58432" lon="5.61756">
        <ele>1566.52</ele>
        <time>2017-07-11T07:41:47.000Z</time>
      </trkpt>
      <trkpt lat="44.58435" lon="5.61769">
        <ele>1569.05</ele>
        <time>2017-07-11T07:46:48.000Z</time>
      </trkpt>
      <trkpt lat="44.58441" lon="5.61779">
        <ele>1569.76</ele>
        <time>2017-07-11T07:47:15.000Z</time>
      </trkpt>
      <trkpt lat="44.5844" lon="5.61765">
        <ele>1567</ele>
        <time>2017-07-11T07:47:56.000Z</time>
      </trkpt>
      <trkpt lat="44.58432" lon="5.61757">
        <ele>1566.82</ele>
        <time>2017-07-11T07:48:13.000Z</time>
      </trkpt>
      <trkpt lat="44.58437" lon="5.61769">
        <ele>1568.41</ele>
        <time>2017-07-11T07:49:51.000Z</time>
      </trkpt>
      <trkpt lat="44.5843" lon="5.61783">
        <ele>1573.53</ele>
        <time>2017-07-11T07:50:01.000Z</time>
      </trkpt>
      <trkpt lat="44.58421" lon="5.61782">
        <ele>1575.18</ele>
        <time>2017-07-11T07:51:16.000Z</time>
      </trkpt>
      <trkpt lat="44.58412" lon="5.61773">
        <ele>1574.5</ele>
        <time>2017-07-11T07:51:27.000Z</time>
      </trkpt>
      <trkpt lat="44.58402" lon="5.61767">
        <ele>1574.22</ele>
        <time>2017-07-11T07:52:16.000Z</time>
      </trkpt>
      <trkpt lat="44.58399" lon="5.61781">
        <ele>1577.84</ele>
        <time>2017-07-11T07:52:26.000Z</time>
      </trkpt>
      <trkpt lat="44.58404" lon="5.61792">
        <ele>1579.76</ele>
        <time>2017-07-11T07:53:23.000Z</time>
      </trkpt>
      <trkpt lat="44.58396" lon="5.61784">
        <ele>1578.71</ele>
        <time>2017-07-11T07:57:19.000Z</time>
      </trkpt>
      <trkpt lat="44.58386" lon="5.6178">
        <ele>1578.5</ele>
        <time>2017-07-11T07:58:09.000Z</time>
      </trkpt>
      <trkpt lat="44.58395" lon="5.61784">
        <ele>1578.86</ele>
        <time>2017-07-11T08:01:24.000Z</time>
      </trkpt>
      <trkpt lat="44.58405" lon="5.61788">
        <ele>1578.84</ele>
        <time>2017-07-11T08:01:37.000Z</time>
      </trkpt>
      <trkpt lat="44.58404" lon="5.61802">
        <ele>1581.87</ele>
        <time>2017-07-11T08:12:25.000Z</time>
      </trkpt>
      <trkpt lat="44.58402" lon="5.61814">
        <ele>1584.76</ele>
        <time>2017-07-11T08:13:14.000Z</time>
      </trkpt>
      <trkpt lat="44.58403" lon="5.61828">
        <ele>1587.66</ele>
        <time>2017-07-11T08:13:25.000Z</time>
      </trkpt>
      <trkpt lat="44.58405" lon="5.61841">
        <ele>1590.71</ele>
        <time>2017-07-11T08:13:37.000Z</time>
      </trkpt>
      <trkpt lat="44.5841" lon="5.61851">
        <ele>1593.09</ele>
        <time>2017-07-11T08:13:51.000Z</time>
      </trkpt>
      <trkpt lat="44.58407" lon="5.61863">
        <ele>1596.31</ele>
        <time>2017-07-11T08:14:21.000Z</time>
      </trkpt>
      <trkpt lat="44.58408" lon="5.61877">
        <ele>1599.67</ele>
        <time>2017-07-11T08:14:32.000Z</time>
      </trkpt>
      <trkpt lat="44.58405" lon="5.61889">
        <ele>1602.8</ele>
        <time>2017-07-11T08:14:55.000Z</time>
      </trkpt>
      <trkpt lat="44.58409" lon="5.61901">
        <ele>1605.96</ele>
        <time>2017-07-11T08:15:18.000Z</time>
      </trkpt>
      <trkpt lat="44.58404" lon="5.61914">
        <ele>1608.84</ele>
        <time>2017-07-11T08:15:49.000Z</time>
      </trkpt>
      <trkpt lat="44.58405" lon="5.61927">
        <ele>1612.19</ele>
        <time>2017-07-11T08:16:02.000Z</time>
      </trkpt>
      <trkpt lat="44.58407" lon="5.6194">
        <ele>1615.68</ele>
        <time>2017-07-11T08:17:34.000Z</time>
      </trkpt>
      <trkpt lat="44.58404" lon="5.61953">
        <ele>1619.03</ele>
        <time>2017-07-11T08:17:45.000Z</time>
      </trkpt>
      <trkpt lat="44.58412" lon="5.61961">
        <ele>1621.98</ele>
        <time>2017-07-11T08:18:02.000Z</time>
      </trkpt>
      <trkpt lat="44.58409" lon="5.61973">
        <ele>1624.57</ele>
        <time>2017-07-11T08:19:01.000Z</time>
      </trkpt>
      <trkpt lat="44.58413" lon="5.61988">
        <ele>1627.93</ele>
        <time>2017-07-11T08:19:56.000Z</time>
      </trkpt>
      <trkpt lat="44.58421" lon="5.61997">
        <ele>1629.82</ele>
        <time>2017-07-11T08:20:06.000Z</time>
      </trkpt>
      <trkpt lat="44.58428" lon="5.62004">
        <ele>1630.95</ele>
        <time>2017-07-11T08:20:40.000Z</time>
      </trkpt>
      <trkpt lat="44.58435" lon="5.62013">
        <ele>1631.89</ele>
        <time>2017-07-11T08:21:15.000Z</time>
      </trkpt>
      <trkpt lat="44.58441" lon="5.62024">
        <ele>1633.06</ele>
        <time>2017-07-11T08:21:33.000Z</time>
      </trkpt>
      <trkpt lat="44.58448" lon="5.62032">
        <ele>1633.75</ele>
        <time>2017-07-11T08:22:03.000Z</time>
      </trkpt>
      <trkpt lat="44.58455" lon="5.62041">
        <ele>1634.54</ele>
        <time>2017-07-11T08:22:22.000Z</time>
      </trkpt>
      <trkpt lat="44.58462" lon="5.6205">
        <ele>1635.34</ele>
        <time>2017-07-11T08:22:49.000Z</time>
      </trkpt>
      <trkpt lat="44.58468" lon="5.6206">
        <ele>1636.33</ele>
        <time>2017-07-11T08:23:00.000Z</time>
      </trkpt>
      <trkpt lat="44.58475" lon="5.62069">
        <ele>1637.02</ele>
        <time>2017-07-11T08:23:23.000Z</time>
      </trkpt>
      <trkpt lat="44.58483" lon="5.62076">
        <ele>1637.38</ele>
        <time>2017-07-11T08:24:03.000Z</time>
      </trkpt>
      <trkpt lat="44.58477" lon="5.62066">
        <ele>1636.62</ele>
        <time>2017-07-11T08:25:12.000Z</time>
      </trkpt>
      <trkpt lat="44.58466" lon="5.6206">
        <ele>1636.37</ele>
        <time>2017-07-11T08:25:22.000Z</time>
      </trkpt>
      <trkpt lat="44.58459" lon="5.62052">
        <ele>1635.59</ele>
        <time>2017-07-11T08:25:33.000Z</time>
      </trkpt>
      <trkpt lat="44.58466" lon="5.62061">
        <ele>1636.4</ele>
        <time>2017-07-11T08:26:57.000Z</time>
      </trkpt>
      <trkpt lat="44.58474" lon="5.62068">
        <ele>1636.94</ele>
        <time>2017-07-11T08:27:10.000Z</time>
      </trkpt>
      <trkpt lat="44.58481" lon="5.62076">
        <ele>1637.49</ele>
        <time>2017-07-11T08:27:26.000Z</time>
      </trkpt>
      <trkpt lat="44.5849" lon="5.62081">
        <ele>1637.18</ele>
        <time>2017-07-11T08:28:57.000Z</time>
      </trkpt>
      <trkpt lat="44.58499" lon="5.62086">
        <ele>1636.47</ele>
        <time>2017-07-11T08:29:35.000Z</time>
      </trkpt>
      <trkpt lat="44.58506" lon="5.62094">
        <ele>1635.72</ele>
        <time>2017-07-11T08:30:05.000Z</time>
      </trkpt>
      <trkpt lat="44.58514" lon="5.621">
        <ele>1634.02</ele>
        <time>2017-07-11T08:30:27.000Z</time>
      </trkpt>
      <trkpt lat="44.58521" lon="5.62108">
        <ele>1632.29</ele>
        <time>2017-07-11T08:30:39.000Z</time>
      </trkpt>
      <trkpt lat="44.58527" lon="5.62118">
        <ele>1631.01</ele>
        <time>2017-07-11T08:30:49.000Z</time>
      </trkpt>
      <trkpt lat="44.58535" lon="5.62127">
        <ele>1628.89</ele>
        <time>2017-07-11T08:31:03.000Z</time>
      </trkpt>
      <trkpt lat="44.58543" lon="5.62134">
        <ele>1626.6</ele>
        <time>2017-07-11T08:31:15.000Z</time>
      </trkpt>
      <trkpt lat="44.5855" lon="5.62141">
        <ele>1624.56</ele>
        <time>2017-07-11T08:31:26.000Z</time>
      </trkpt>
      <trkpt lat="44.58555" lon="5.62152">
        <ele>1624.36</ele>
        <time>2017-07-11T08:31:46.000Z</time>
      </trkpt>
      <trkpt lat="44.58559" lon="5.62164">
        <ele>1624.46</ele>
        <time>2017-07-11T08:31:56.000Z</time>
      </trkpt>
      <trkpt lat="44.58565" lon="5.62175">
        <ele>1624.34</ele>
        <time>2017-07-11T08:32:06.000Z</time>
      </trkpt>
      <trkpt lat="44.5857" lon="5.62187">
        <ele>1624.64</ele>
        <time>2017-07-11T08:32:16.000Z</time>
      </trkpt>
      <trkpt lat="44.58574" lon="5.62198">
        <ele>1625.45</ele>
        <time>2017-07-11T08:34:17.000Z</time>
      </trkpt>
      <trkpt lat="44.58573" lon="5.62211">
        <ele>1628.27</ele>
        <time>2017-07-11T08:34:35.000Z</time>
      </trkpt>
      <trkpt lat="44.58578" lon="5.62222">
        <ele>1628.96</ele>
        <time>2017-07-11T08:34:48.000Z</time>
      </trkpt>
      <trkpt lat="44.58581" lon="5.62236">
        <ele>1630.87</ele>
        <time>2017-07-11T08:35:05.000Z</time>
      </trkpt>
      <trkpt lat="44.58581" lon="5.62248">
        <ele>1633.26</ele>
        <time>2017-07-11T08:35:24.000Z</time>
      </trkpt>
      <trkpt lat="44.58585" lon="5.62262">
        <ele>1634.94</ele>
        <time>2017-07-11T08:35:39.000Z</time>
      </trkpt>
      <trkpt lat="44.58581" lon="5.62273">
        <ele>1638.09</ele>
        <time>2017-07-11T08:36:17.000Z</time>
      </trkpt>
      <trkpt lat="44.5858" lon="5.62286">
        <ele>1640.73</ele>
        <time>2017-07-11T08:36:36.000Z</time>
      </trkpt>
      <trkpt lat="44.58577" lon="5.62299">
        <ele>1643.64</ele>
        <time>2017-07-11T08:37:04.000Z</time>
      </trkpt>
      <trkpt lat="44.58571" lon="5.62309">
        <ele>1646.08</ele>
        <time>2017-07-11T08:37:33.000Z</time>
      </trkpt>
      <trkpt lat="44.58572" lon="5.62323">
        <ele>1648.3</ele>
        <time>2017-07-11T08:37:47.000Z</time>
      </trkpt>
      <trkpt lat="44.5857" lon="5.62337">
        <ele>1650.3</ele>
        <time>2017-07-11T08:38:24.000Z</time>
      </trkpt>
      <trkpt lat="44.58573" lon="5.62349">
        <ele>1651.41</ele>
        <time>2017-07-11T08:39:22.000Z</time>
      </trkpt>
      <trkpt lat="44.58572" lon="5.62363">
        <ele>1652.57</ele>
        <time>2017-07-11T08:39:33.000Z</time>
      </trkpt>
      <trkpt lat="44.58567" lon="5.62374">
        <ele>1653.69</ele>
        <time>2017-07-11T08:39:45.000Z</time>
      </trkpt>
      <trkpt lat="44.58568" lon="5.62387">
        <ele>1654.51</ele>
        <time>2017-07-11T08:40:05.000Z</time>
      </trkpt>
      <trkpt lat="44.58568" lon="5.624">
        <ele>1655.39</ele>
        <time>2017-07-11T08:40:20.000Z</time>
      </trkpt>
      <trkpt lat="44.58571" lon="5.62412">
        <ele>1656.12</ele>
        <time>2017-07-11T08:40:33.000Z</time>
      </trkpt>
      <trkpt lat="44.58573" lon="5.62428">
        <ele>1657.42</ele>
        <time>2017-07-11T08:40:43.000Z</time>
      </trkpt>
      <trkpt lat="44.58576" lon="5.62441">
        <ele>1658.71</ele>
        <time>2017-07-11T08:40:53.000Z</time>
      </trkpt>
      <trkpt lat="44.58578" lon="5.62456">
        <ele>1660.21</ele>
        <time>2017-07-11T08:41:03.000Z</time>
      </trkpt>
      <trkpt lat="44.58579" lon="5.62473">
        <ele>1662.28</ele>
        <time>2017-07-11T08:41:13.000Z</time>
      </trkpt>
      <trkpt lat="44.58584" lon="5.62485">
        <ele>1663.27</ele>
        <time>2017-07-11T08:41:27.000Z</time>
      </trkpt>
      <trkpt lat="44.58582" lon="5.62497">
        <ele>1664.82</ele>
        <time>2017-07-11T08:43:05.000Z</time>
      </trkpt>
      <trkpt lat="44.58587" lon="5.62516">
        <ele>1666.62</ele>
        <time>2017-07-11T08:43:15.000Z</time>
      </trkpt>
      <trkpt lat="44.58592" lon="5.62528">
        <ele>1667.92</ele>
        <time>2017-07-11T08:43:25.000Z</time>
      </trkpt>
      <trkpt lat="44.58596" lon="5.62539">
        <ele>1669.07</ele>
        <time>2017-07-11T08:43:37.000Z</time>
      </trkpt>
      <trkpt lat="44.58602" lon="5.6255">
        <ele>1670.1</ele>
        <time>2017-07-11T08:43:50.000Z</time>
      </trkpt>
      <trkpt lat="44.58608" lon="5.62563">
        <ele>1671.25</ele>
        <time>2017-07-11T08:44:00.000Z</time>
      </trkpt>
      <trkpt lat="44.58614" lon="5.62577">
        <ele>1672.35</ele>
        <time>2017-07-11T08:44:10.000Z</time>
      </trkpt>
      <trkpt lat="44.58616" lon="5.6259">
        <ele>1672.9</ele>
        <time>2017-07-11T08:44:23.000Z</time>
      </trkpt>
      <trkpt lat="44.58623" lon="5.62598">
        <ele>1672.9</ele>
        <time>2017-07-11T08:44:50.000Z</time>
      </trkpt>
      <trkpt lat="44.58633" lon="5.62613">
        <ele>1672.88</ele>
        <time>2017-07-11T08:45:00.000Z</time>
      </trkpt>
      <trkpt lat="44.58642" lon="5.62623">
        <ele>1672.63</ele>
        <time>2017-07-11T08:45:10.000Z</time>
      </trkpt>
      <trkpt lat="44.58653" lon="5.62635">
        <ele>1672.1</ele>
        <time>2017-07-11T08:45:21.000Z</time>
      </trkpt>
      <trkpt lat="44.58663" lon="5.62643">
        <ele>1671.36</ele>
        <time>2017-07-11T08:45:32.000Z</time>
      </trkpt>
      <trkpt lat="44.58673" lon="5.62645">
        <ele>1670.41</ele>
        <time>2017-07-11T08:45:43.000Z</time>
      </trkpt>
      <trkpt lat="44.58681" lon="5.62651">
        <ele>1669.23</ele>
        <time>2017-07-11T08:45:58.000Z</time>
      </trkpt>
      <trkpt lat="44.5869" lon="5.62653">
        <ele>1667.64</ele>
        <time>2017-07-11T08:46:56.000Z</time>
      </trkpt>
      <trkpt lat="44.587" lon="5.62653">
        <ele>1665.44</ele>
        <time>2017-07-11T08:47:22.000Z</time>
      </trkpt>
      <trkpt lat="44.58711" lon="5.62656">
        <ele>1662.86</ele>
        <time>2017-07-11T08:47:32.000Z</time>
      </trkpt>
      <trkpt lat="44.58723" lon="5.62661">
        <ele>1660.16</ele>
        <time>2017-07-11T08:47:42.000Z</time>
      </trkpt>
      <trkpt lat="44.58733" lon="5.62665">
        <ele>1657.84</ele>
        <time>2017-07-11T08:47:52.000Z</time>
      </trkpt>
      <trkpt lat="44.58743" lon="5.62667">
        <ele>1655.43</ele>
        <time>2017-07-11T08:48:02.000Z</time>
      </trkpt>
      <trkpt lat="44.58753" lon="5.62665">
        <ele>1653.28</ele>
        <time>2017-07-11T08:48:12.000Z</time>
      </trkpt>
      <trkpt lat="44.58763" lon="5.62665">
        <ele>1651.21</ele>
        <time>2017-07-11T08:48:22.000Z</time>
      </trkpt>
      <trkpt lat="44.58772" lon="5.62665">
        <ele>1649.01</ele>
        <time>2017-07-11T08:48:32.000Z</time>
      </trkpt>
      <trkpt lat="44.58783" lon="5.62665">
        <ele>1646.38</ele>
        <time>2017-07-11T08:48:42.000Z</time>
      </trkpt>
      <trkpt lat="44.58791" lon="5.62671">
        <ele>1644.76</ele>
        <time>2017-07-11T08:49:21.000Z</time>
      </trkpt>
      <trkpt lat="44.58801" lon="5.6267">
        <ele>1642.41</ele>
        <time>2017-07-11T08:54:51.000Z</time>
      </trkpt>
      <trkpt lat="44.58811" lon="5.62665">
        <ele>1639.81</ele>
        <time>2017-07-11T08:55:01.000Z</time>
      </trkpt>
      <trkpt lat="44.5882" lon="5.62662">
        <ele>1637.74</ele>
        <time>2017-07-11T08:55:11.000Z</time>
      </trkpt>
      <trkpt lat="44.58831" lon="5.62658">
        <ele>1635.48</ele>
        <time>2017-07-11T08:55:21.000Z</time>
      </trkpt>
      <trkpt lat="44.58843" lon="5.62654">
        <ele>1633.6</ele>
        <time>2017-07-11T08:55:31.000Z</time>
      </trkpt>
      <trkpt lat="44.58853" lon="5.62652">
        <ele>1632.41</ele>
        <time>2017-07-11T08:55:41.000Z</time>
      </trkpt>
      <trkpt lat="44.58861" lon="5.62645">
        <ele>1631.27</ele>
        <time>2017-07-11T08:55:51.000Z</time>
      </trkpt>
      <trkpt lat="44.58872" lon="5.62642">
        <ele>1630.8</ele>
        <time>2017-07-11T08:56:01.000Z</time>
      </trkpt>
      <trkpt lat="44.58883" lon="5.62636">
        <ele>1630.59</ele>
        <time>2017-07-11T08:56:11.000Z</time>
      </trkpt>
      <trkpt lat="44.58891" lon="5.6263">
        <ele>1630.73</ele>
        <time>2017-07-11T08:56:21.000Z</time>
      </trkpt>
      <trkpt lat="44.589" lon="5.62623">
        <ele>1631.09</ele>
        <time>2017-07-11T08:56:31.000Z</time>
      </trkpt>
      <trkpt lat="44.58908" lon="5.62617">
        <ele>1631.6</ele>
        <time>2017-07-11T08:56:41.000Z</time>
      </trkpt>
      <trkpt lat="44.58903" lon="5.62628">
        <ele>1631.48</ele>
        <time>2017-07-11T08:57:12.000Z</time>
      </trkpt>
      <trkpt lat="44.58909" lon="5.62619">
        <ele>1631.71</ele>
        <time>2017-07-11T09:22:40.000Z</time>
      </trkpt>
      <trkpt lat="44.58918" lon="5.62613">
        <ele>1632.06</ele>
        <time>2017-07-11T09:22:55.000Z</time>
      </trkpt>
      <trkpt lat="44.58927" lon="5.62609">
        <ele>1632.51</ele>
        <time>2017-07-11T09:23:13.000Z</time>
      </trkpt>
      <trkpt lat="44.58937" lon="5.62603">
        <ele>1632.95</ele>
        <time>2017-07-11T09:23:23.000Z</time>
      </trkpt>
      <trkpt lat="44.58945" lon="5.62597">
        <ele>1632.99</ele>
        <time>2017-07-11T09:23:33.000Z</time>
      </trkpt>
      <trkpt lat="44.58954" lon="5.62591">
        <ele>1632.72</ele>
        <time>2017-07-11T09:23:49.000Z</time>
      </trkpt>
      <trkpt lat="44.58964" lon="5.6259">
        <ele>1632.91</ele>
        <time>2017-07-11T09:24:55.000Z</time>
      </trkpt>
      <trkpt lat="44.58972" lon="5.62597">
        <ele>1634.32</ele>
        <time>2017-07-11T09:25:07.000Z</time>
      </trkpt>
      <trkpt lat="44.5898" lon="5.626">
        <ele>1634.88</ele>
        <time>2017-07-11T09:25:21.000Z</time>
      </trkpt>
      <trkpt lat="44.58991" lon="5.62603">
        <ele>1634.98</ele>
        <time>2017-07-11T09:25:31.000Z</time>
      </trkpt>
      <trkpt lat="44.58999" lon="5.62617">
        <ele>1636.64</ele>
        <time>2017-07-11T09:25:41.000Z</time>
      </trkpt>
      <trkpt lat="44.59006" lon="5.6263">
        <ele>1637.67</ele>
        <time>2017-07-11T09:25:51.000Z</time>
      </trkpt>
      <trkpt lat="44.59013" lon="5.62645">
        <ele>1638.2</ele>
        <time>2017-07-11T09:26:01.000Z</time>
      </trkpt>
      <trkpt lat="44.59019" lon="5.62661">
        <ele>1638.19</ele>
        <time>2017-07-11T09:26:11.000Z</time>
      </trkpt>
      <trkpt lat="44.59047" lon="5.627">
        <ele>1632.57</ele>
        <time>2017-07-11T09:26:47.000Z</time>
      </trkpt>
      <trkpt lat="44.59054" lon="5.6271">
        <ele>1631.11</ele>
        <time>2017-07-11T09:26:57.000Z</time>
      </trkpt>
      <trkpt lat="44.59063" lon="5.62718">
        <ele>1630.06</ele>
        <time>2017-07-11T09:27:07.000Z</time>
      </trkpt>
      <trkpt lat="44.59071" lon="5.62725">
        <ele>1629.35</ele>
        <time>2017-07-11T09:27:39.000Z</time>
      </trkpt>
      <trkpt lat="44.59104" lon="5.6277">
        <ele>1627.42</ele>
        <time>2017-07-11T09:28:15.000Z</time>
      </trkpt>
      <trkpt lat="44.59114" lon="5.62762">
        <ele>1628.32</ele>
        <time>2017-07-11T09:28:25.000Z</time>
      </trkpt>
      <trkpt lat="44.59123" lon="5.62767">
        <ele>1628.44</ele>
        <time>2017-07-11T09:28:35.000Z</time>
      </trkpt>
      <trkpt lat="44.59133" lon="5.62765">
        <ele>1628.72</ele>
        <time>2017-07-11T09:28:45.000Z</time>
      </trkpt>
      <trkpt lat="44.59144" lon="5.62772">
        <ele>1628.95</ele>
        <time>2017-07-11T09:28:55.000Z</time>
      </trkpt>
      <trkpt lat="44.59153" lon="5.62773">
        <ele>1629.18</ele>
        <time>2017-07-11T09:29:11.000Z</time>
      </trkpt>
      <trkpt lat="44.59163" lon="5.62774">
        <ele>1629.36</ele>
        <time>2017-07-11T09:29:22.000Z</time>
      </trkpt>
      <trkpt lat="44.59173" lon="5.62772">
        <ele>1629.41</ele>
        <time>2017-07-11T09:29:32.000Z</time>
      </trkpt>
      <trkpt lat="44.59182" lon="5.62771">
        <ele>1629.27</ele>
        <time>2017-07-11T09:29:42.000Z</time>
      </trkpt>
      <trkpt lat="44.5919" lon="5.62766">
        <ele>1628.86</ele>
        <time>2017-07-11T09:29:59.000Z</time>
      </trkpt>
      <trkpt lat="44.592" lon="5.62768">
        <ele>1628.68</ele>
        <time>2017-07-11T09:30:09.000Z</time>
      </trkpt>
      <trkpt lat="44.59209" lon="5.62771">
        <ele>1628.44</ele>
        <time>2017-07-11T09:30:20.000Z</time>
      </trkpt>
      <trkpt lat="44.5922" lon="5.62773">
        <ele>1628.12</ele>
        <time>2017-07-11T09:30:30.000Z</time>
      </trkpt>
      <trkpt lat="44.5923" lon="5.62774">
        <ele>1627.86</ele>
        <time>2017-07-11T09:30:40.000Z</time>
      </trkpt>
      <trkpt lat="44.5924" lon="5.62775">
        <ele>1627.67</ele>
        <time>2017-07-11T09:30:50.000Z</time>
      </trkpt>
      <trkpt lat="44.59252" lon="5.62772">
        <ele>1627.58</ele>
        <time>2017-07-11T09:31:00.000Z</time>
      </trkpt>
      <trkpt lat="44.59262" lon="5.62773">
        <ele>1627.71</ele>
        <time>2017-07-11T09:31:10.000Z</time>
      </trkpt>
      <trkpt lat="44.59273" lon="5.62772">
        <ele>1627.9</ele>
        <time>2017-07-11T09:31:20.000Z</time>
      </trkpt>
      <trkpt lat="44.59286" lon="5.62772">
        <ele>1628.24</ele>
        <time>2017-07-11T09:31:30.000Z</time>
      </trkpt>
      <trkpt lat="44.59297" lon="5.62771">
        <ele>1628.59</ele>
        <time>2017-07-11T09:31:40.000Z</time>
      </trkpt>
      <trkpt lat="44.59307" lon="5.62772">
        <ele>1629.03</ele>
        <time>2017-07-11T09:31:50.000Z</time>
      </trkpt>
      <trkpt lat="44.59318" lon="5.62773">
        <ele>1629.54</ele>
        <time>2017-07-11T09:32:01.000Z</time>
      </trkpt>
      <trkpt lat="44.59329" lon="5.62771">
        <ele>1630.12</ele>
        <time>2017-07-11T09:32:11.000Z</time>
      </trkpt>
      <trkpt lat="44.59337" lon="5.62766">
        <ele>1630.47</ele>
        <time>2017-07-11T09:32:37.000Z</time>
      </trkpt>
      <trkpt lat="44.59347" lon="5.62765">
        <ele>1631.22</ele>
        <time>2017-07-11T09:32:48.000Z</time>
      </trkpt>
      <trkpt lat="44.59358" lon="5.62763">
        <ele>1632</ele>
        <time>2017-07-11T09:32:58.000Z</time>
      </trkpt>
      <trkpt lat="44.59368" lon="5.62763">
        <ele>1632.96</ele>
        <time>2017-07-11T09:33:25.000Z</time>
      </trkpt>
      <trkpt lat="44.59377" lon="5.62758">
        <ele>1633.53</ele>
        <time>2017-07-11T09:34:19.000Z</time>
      </trkpt>
      <trkpt lat="44.59387" lon="5.62758">
        <ele>1634.59</ele>
        <time>2017-07-11T09:34:29.000Z</time>
      </trkpt>
      <trkpt lat="44.59396" lon="5.62757">
        <ele>1635.35</ele>
        <time>2017-07-11T09:34:40.000Z</time>
      </trkpt>
      <trkpt lat="44.59406" lon="5.62755">
        <ele>1635.95</ele>
        <time>2017-07-11T09:34:50.000Z</time>
      </trkpt>
      <trkpt lat="44.59418" lon="5.62751">
        <ele>1636.17</ele>
        <time>2017-07-11T09:35:00.000Z</time>
      </trkpt>
      <trkpt lat="44.59429" lon="5.62753">
        <ele>1637.18</ele>
        <time>2017-07-11T09:35:10.000Z</time>
      </trkpt>
      <trkpt lat="44.59438" lon="5.62754">
        <ele>1638.02</ele>
        <time>2017-07-11T09:35:22.000Z</time>
      </trkpt>
      <trkpt lat="44.59449" lon="5.62752">
        <ele>1638.65</ele>
        <time>2017-07-11T09:35:32.000Z</time>
      </trkpt>
      <trkpt lat="44.59461" lon="5.62752">
        <ele>1639.39</ele>
        <time>2017-07-11T09:35:42.000Z</time>
      </trkpt>
      <trkpt lat="44.5947" lon="5.62756">
        <ele>1640.18</ele>
        <time>2017-07-11T09:35:52.000Z</time>
      </trkpt>
      <trkpt lat="44.5948" lon="5.62756">
        <ele>1640.16</ele>
        <time>2017-07-11T09:36:02.000Z</time>
      </trkpt>
      <trkpt lat="44.5949" lon="5.62756">
        <ele>1639.72</ele>
        <time>2017-07-11T09:37:10.000Z</time>
      </trkpt>
      <trkpt lat="44.59503" lon="5.6276">
        <ele>1638.77</ele>
        <time>2017-07-11T09:37:20.000Z</time>
      </trkpt>
      <trkpt lat="44.5951" lon="5.62768">
        <ele>1637.89</ele>
        <time>2017-07-11T09:39:43.000Z</time>
      </trkpt>
      <trkpt lat="44.59512" lon="5.62783">
        <ele>1637.04</ele>
        <time>2017-07-11T09:39:53.000Z</time>
      </trkpt>
      <trkpt lat="44.59514" lon="5.62795">
        <ele>1635.47</ele>
        <time>2017-07-11T09:40:05.000Z</time>
      </trkpt>
      <trkpt lat="44.59516" lon="5.62813">
        <ele>1632.61</ele>
        <time>2017-07-11T09:40:15.000Z</time>
      </trkpt>
      <trkpt lat="44.59519" lon="5.62826">
        <ele>1629.96</ele>
        <time>2017-07-11T09:40:25.000Z</time>
      </trkpt>
      <trkpt lat="44.59522" lon="5.62841">
        <ele>1627.25</ele>
        <time>2017-07-11T09:40:35.000Z</time>
      </trkpt>
      <trkpt lat="44.59525" lon="5.62856">
        <ele>1623.94</ele>
        <time>2017-07-11T09:40:45.000Z</time>
      </trkpt>
      <trkpt lat="44.59529" lon="5.62871">
        <ele>1620.18</ele>
        <time>2017-07-11T09:40:55.000Z</time>
      </trkpt>
      <trkpt lat="44.59537" lon="5.62883">
        <ele>1616.02</ele>
        <time>2017-07-11T09:41:05.000Z</time>
      </trkpt>
      <trkpt lat="44.59543" lon="5.62895">
        <ele>1612.68</ele>
        <time>2017-07-11T09:41:15.000Z</time>
      </trkpt>
      <trkpt lat="44.59549" lon="5.62905">
        <ele>1609.9</ele>
        <time>2017-07-11T09:41:30.000Z</time>
      </trkpt>
      <trkpt lat="44.59549" lon="5.62921">
        <ele>1608.15</ele>
        <time>2017-07-11T09:41:40.000Z</time>
      </trkpt>
      <trkpt lat="44.59556" lon="5.62932">
        <ele>1606.65</ele>
        <time>2017-07-11T09:41:50.000Z</time>
      </trkpt>
      <trkpt lat="44.59567" lon="5.62928">
        <ele>1605.09</ele>
        <time>2017-07-11T09:42:34.000Z</time>
      </trkpt>
      <trkpt lat="44.59578" lon="5.6293">
        <ele>1603.24</ele>
        <time>2017-07-11T09:42:44.000Z</time>
      </trkpt>
      <trkpt lat="44.59587" lon="5.62927">
        <ele>1601.35</ele>
        <time>2017-07-11T09:42:56.000Z</time>
      </trkpt>
      <trkpt lat="44.59596" lon="5.62921">
        <ele>1598.89</ele>
        <time>2017-07-11T09:43:06.000Z</time>
      </trkpt>
      <trkpt lat="44.59605" lon="5.62922">
        <ele>1596.35</ele>
        <time>2017-07-11T09:43:16.000Z</time>
      </trkpt>
      <trkpt lat="44.59615" lon="5.62929">
        <ele>1593.58</ele>
        <time>2017-07-11T09:43:26.000Z</time>
      </trkpt>
      <trkpt lat="44.59625" lon="5.6293">
        <ele>1590.53</ele>
        <time>2017-07-11T09:44:02.000Z</time>
      </trkpt>
      <trkpt lat="44.59634" lon="5.6293">
        <ele>1587.35</ele>
        <time>2017-07-11T09:44:17.000Z</time>
      </trkpt>
      <trkpt lat="44.59643" lon="5.62932">
        <ele>1584.45</ele>
        <time>2017-07-11T09:44:27.000Z</time>
      </trkpt>
      <trkpt lat="44.59653" lon="5.62936">
        <ele>1581.31</ele>
        <time>2017-07-11T09:44:37.000Z</time>
      </trkpt>
      <trkpt lat="44.59663" lon="5.62941">
        <ele>1578.45</ele>
        <time>2017-07-11T09:45:01.000Z</time>
      </trkpt>
      <trkpt lat="44.59674" lon="5.6294">
        <ele>1574.65</ele>
        <time>2017-07-11T09:45:11.000Z</time>
      </trkpt>
      <trkpt lat="44.59683" lon="5.62948">
        <ele>1572.88</ele>
        <time>2017-07-11T09:45:43.000Z</time>
      </trkpt>
      <trkpt lat="44.59699" lon="5.62956">
        <ele>1568.62</ele>
        <time>2017-07-11T09:45:53.000Z</time>
      </trkpt>
      <trkpt lat="44.59709" lon="5.62958">
        <ele>1565.84</ele>
        <time>2017-07-11T09:46:05.000Z</time>
      </trkpt>
      <trkpt lat="44.5972" lon="5.62956">
        <ele>1561.8</ele>
        <time>2017-07-11T09:46:15.000Z</time>
      </trkpt>
      <trkpt lat="44.59729" lon="5.62955">
        <ele>1558.63</ele>
        <time>2017-07-11T09:46:42.000Z</time>
      </trkpt>
      <trkpt lat="44.59744" lon="5.62959">
        <ele>1554.7</ele>
        <time>2017-07-11T09:46:52.000Z</time>
      </trkpt>
      <trkpt lat="44.59745" lon="5.62945">
        <ele>1551.24</ele>
        <time>2017-07-11T09:48:42.000Z</time>
      </trkpt>
      <trkpt lat="44.59745" lon="5.62932">
        <ele>1548.61</ele>
        <time>2017-07-11T09:48:53.000Z</time>
      </trkpt>
      <trkpt lat="44.59752" lon="5.62922">
        <ele>1544.33</ele>
        <time>2017-07-11T09:49:43.000Z</time>
      </trkpt>
      <trkpt lat="44.59744" lon="5.62907">
        <ele>1544.52</ele>
        <time>2017-07-11T09:49:53.000Z</time>
      </trkpt>
      <trkpt lat="44.59745" lon="5.62893">
        <ele>1542.46</ele>
        <time>2017-07-11T09:50:38.000Z</time>
      </trkpt>
      <trkpt lat="44.59741" lon="5.62905">
        <ele>1545.47</ele>
        <time>2017-07-11T09:50:55.000Z</time>
      </trkpt>
      <trkpt lat="44.5973" lon="5.62891">
        <ele>1548.36</ele>
        <time>2017-07-11T09:51:05.000Z</time>
      </trkpt>
      <trkpt lat="44.59738" lon="5.62898">
        <ele>1545.69</ele>
        <time>2017-07-11T09:51:15.000Z</time>
      </trkpt>
      <trkpt lat="44.59742" lon="5.62885">
        <ele>1542.82</ele>
        <time>2017-07-11T09:52:03.000Z</time>
      </trkpt>
      <trkpt lat="44.59743" lon="5.62868">
        <ele>1540.89</ele>
        <time>2017-07-11T09:52:13.000Z</time>
      </trkpt>
      <trkpt lat="44.59745" lon="5.62854">
        <ele>1538.91</ele>
        <time>2017-07-11T09:52:47.000Z</time>
      </trkpt>
      <trkpt lat="44.5974" lon="5.62841">
        <ele>1540.3</ele>
        <time>2017-07-11T09:52:57.000Z</time>
      </trkpt>
      <trkpt lat="44.59739" lon="5.62825">
        <ele>1539.83</ele>
        <time>2017-07-11T09:53:07.000Z</time>
      </trkpt>
      <trkpt lat="44.59745" lon="5.62813">
        <ele>1535.94</ele>
        <time>2017-07-11T09:53:17.000Z</time>
      </trkpt>
      <trkpt lat="44.59742" lon="5.628">
        <ele>1537.31</ele>
        <time>2017-07-11T09:53:27.000Z</time>
      </trkpt>
      <trkpt lat="44.59745" lon="5.62786">
        <ele>1535.22</ele>
        <time>2017-07-11T09:53:38.000Z</time>
      </trkpt>
      <trkpt lat="44.59749" lon="5.62773">
        <ele>1532.12</ele>
        <time>2017-07-11T09:53:48.000Z</time>
      </trkpt>
      <trkpt lat="44.59745" lon="5.62757">
        <ele>1533.51</ele>
        <time>2017-07-11T09:53:58.000Z</time>
      </trkpt>
      <trkpt lat="44.59754" lon="5.62744">
        <ele>1526.98</ele>
        <time>2017-07-11T09:54:08.000Z</time>
      </trkpt>
      <trkpt lat="44.59739" lon="5.62723">
        <ele>1533.14</ele>
        <time>2017-07-11T09:54:18.000Z</time>
      </trkpt>
      <trkpt lat="44.59571" lon="5.62301">
        <ele>1474.62</ele>
        <time>2017-07-11T10:01:37.000Z</time>
      </trkpt>
      <trkpt lat="44.59579" lon="5.62297">
        <ele>1474.68</ele>
        <time>2017-07-11T10:01:47.000Z</time>
      </trkpt>
      <trkpt lat="44.59578" lon="5.62273">
        <ele>1472.98</ele>
        <time>2017-07-11T10:01:57.000Z</time>
      </trkpt>
      <trkpt lat="44.5957" lon="5.62263">
        <ele>1472.06</ele>
        <time>2017-07-11T10:02:10.000Z</time>
      </trkpt>
      <trkpt lat="44.59571" lon="5.62247">
        <ele>1472.13</ele>
        <time>2017-07-11T10:04:30.000Z</time>
      </trkpt>
      <trkpt lat="44.59567" lon="5.62233">
        <ele>1472.32</ele>
        <time>2017-07-11T10:04:40.000Z</time>
      </trkpt>
      <trkpt lat="44.59566" lon="5.6222">
        <ele>1473.5</ele>
        <time>2017-07-11T10:04:53.000Z</time>
      </trkpt>
      <trkpt lat="44.5957" lon="5.62206">
        <ele>1475.76</ele>
        <time>2017-07-11T10:06:55.000Z</time>
      </trkpt>
      <trkpt lat="44.59579" lon="5.62195">
        <ele>1478.7</ele>
        <time>2017-07-11T10:07:05.000Z</time>
      </trkpt>
      <trkpt lat="44.59587" lon="5.62184">
        <ele>1481.14</ele>
        <time>2017-07-11T10:07:15.000Z</time>
      </trkpt>
      <trkpt lat="44.59594" lon="5.62176">
        <ele>1482.86</ele>
        <time>2017-07-11T10:07:38.000Z</time>
      </trkpt>
      <trkpt lat="44.59585" lon="5.62172">
        <ele>1482.67</ele>
        <time>2017-07-11T10:07:51.000Z</time>
      </trkpt>
      <trkpt lat="44.59596" lon="5.62164">
        <ele>1484.51</ele>
        <time>2017-07-11T10:08:02.000Z</time>
      </trkpt>
      <trkpt lat="44.59595" lon="5.62146">
        <ele>1487.03</ele>
        <time>2017-07-11T10:08:12.000Z</time>
      </trkpt>
      <trkpt lat="44.59583" lon="5.62158">
        <ele>1483.92</ele>
        <time>2017-07-11T10:08:22.000Z</time>
      </trkpt>
      <trkpt lat="44.59593" lon="5.62157">
        <ele>1485.17</ele>
        <time>2017-07-11T10:09:01.000Z</time>
      </trkpt>
      <trkpt lat="44.59594" lon="5.62144">
        <ele>1487.24</ele>
        <time>2017-07-11T10:12:44.000Z</time>
      </trkpt>
      <trkpt lat="44.59593" lon="5.62122">
        <ele>1490.46</ele>
        <time>2017-07-11T10:12:54.000Z</time>
      </trkpt>
      <trkpt lat="44.59614" lon="5.62083">
        <ele>1495.75</ele>
        <time>2017-07-11T10:13:04.000Z</time>
      </trkpt>
      <trkpt lat="44.59612" lon="5.6207">
        <ele>1495.14</ele>
        <time>2017-07-11T10:14:07.000Z</time>
      </trkpt>
      <trkpt lat="44.59616" lon="5.62055">
        <ele>1494.72</ele>
        <time>2017-07-11T10:14:17.000Z</time>
      </trkpt>
      <trkpt lat="44.59605" lon="5.62048">
        <ele>1491.22</ele>
        <time>2017-07-11T10:14:27.000Z</time>
      </trkpt>
      <trkpt lat="44.59615" lon="5.62043">
        <ele>1493.03</ele>
        <time>2017-07-11T10:14:51.000Z</time>
      </trkpt>
      <trkpt lat="44.59625" lon="5.62042">
        <ele>1495.15</ele>
        <time>2017-07-11T10:15:22.000Z</time>
      </trkpt>
      <trkpt lat="44.59634" lon="5.62039">
        <ele>1496.95</ele>
        <time>2017-07-11T10:15:39.000Z</time>
      </trkpt>
      <trkpt lat="44.59644" lon="5.62035">
        <ele>1498.92</ele>
        <time>2017-07-11T10:15:49.000Z</time>
      </trkpt>
      <trkpt lat="44.59651" lon="5.62021">
        <ele>1500.07</ele>
        <time>2017-07-11T10:18:07.000Z</time>
      </trkpt>
      <trkpt lat="44.59659" lon="5.62016">
        <ele>1501.79</ele>
        <time>2017-07-11T10:18:49.000Z</time>
      </trkpt>
      <trkpt lat="44.59665" lon="5.62003">
        <ele>1502.74</ele>
        <time>2017-07-11T10:19:14.000Z</time>
      </trkpt>
      <trkpt lat="44.59671" lon="5.61989">
        <ele>1503.31</ele>
        <time>2017-07-11T10:20:30.000Z</time>
      </trkpt>
      <trkpt lat="44.59683" lon="5.61991">
        <ele>1505.23</ele>
        <time>2017-07-11T10:20:40.000Z</time>
      </trkpt>
      <trkpt lat="44.5969" lon="5.61979">
        <ele>1505.61</ele>
        <time>2017-07-11T10:20:52.000Z</time>
      </trkpt>
      <trkpt lat="44.59698" lon="5.6197">
        <ele>1506.07</ele>
        <time>2017-07-11T10:21:07.000Z</time>
      </trkpt>
      <trkpt lat="44.59702" lon="5.61955">
        <ele>1506.03</ele>
        <time>2017-07-11T10:21:51.000Z</time>
      </trkpt>
      <trkpt lat="44.59709" lon="5.61936">
        <ele>1506.73</ele>
        <time>2017-07-11T10:22:01.000Z</time>
      </trkpt>
      <trkpt lat="44.59711" lon="5.61923">
        <ele>1507.23</ele>
        <time>2017-07-11T10:22:14.000Z</time>
      </trkpt>
      <trkpt lat="44.59718" lon="5.61914">
        <ele>1509.01</ele>
        <time>2017-07-11T10:22:46.000Z</time>
      </trkpt>
      <trkpt lat="44.59722" lon="5.619">
        <ele>1510.89</ele>
        <time>2017-07-11T10:23:04.000Z</time>
      </trkpt>
      <trkpt lat="44.59733" lon="5.61898">
        <ele>1513.69</ele>
        <time>2017-07-11T10:23:14.000Z</time>
      </trkpt>
      <trkpt lat="44.59737" lon="5.61886">
        <ele>1516.11</ele>
        <time>2017-07-11T10:25:14.000Z</time>
      </trkpt>
      <trkpt lat="44.59744" lon="5.61873">
        <ele>1519.48</ele>
        <time>2017-07-11T10:26:17.000Z</time>
      </trkpt>
      <trkpt lat="44.59753" lon="5.61867">
        <ele>1522.45</ele>
        <time>2017-07-11T10:26:31.000Z</time>
      </trkpt>
      <trkpt lat="44.59762" lon="5.61864">
        <ele>1524.81</ele>
        <time>2017-07-11T10:27:27.000Z</time>
      </trkpt>
      <trkpt lat="44.59778" lon="5.6186">
        <ele>1528.17</ele>
        <time>2017-07-11T10:27:37.000Z</time>
      </trkpt>
      <trkpt lat="44.59794" lon="5.61865">
        <ele>1528.88</ele>
        <time>2017-07-11T10:28:25.000Z</time>
      </trkpt>
      <trkpt lat="44.59803" lon="5.61864">
        <ele>1530.12</ele>
        <time>2017-07-11T10:28:36.000Z</time>
      </trkpt>
      <trkpt lat="44.59813" lon="5.61866">
        <ele>1530.36</ele>
        <time>2017-07-11T10:28:50.000Z</time>
      </trkpt>
      <trkpt lat="44.59822" lon="5.61865">
        <ele>1531.86</ele>
        <time>2017-07-11T10:29:08.000Z</time>
      </trkpt>
      <trkpt lat="44.59831" lon="5.61867">
        <ele>1532.09</ele>
        <time>2017-07-11T10:29:24.000Z</time>
      </trkpt>
      <trkpt lat="44.59841" lon="5.61866">
        <ele>1533.39</ele>
        <time>2017-07-11T10:29:43.000Z</time>
      </trkpt>
      <trkpt lat="44.59851" lon="5.61866">
        <ele>1534.91</ele>
        <time>2017-07-11T10:30:00.000Z</time>
      </trkpt>
      <trkpt lat="44.5986" lon="5.61866">
        <ele>1535.87</ele>
        <time>2017-07-11T10:30:10.000Z</time>
      </trkpt>
      <trkpt lat="44.5987" lon="5.61872">
        <ele>1534.71</ele>
        <time>2017-07-11T10:31:05.000Z</time>
      </trkpt>
      <trkpt lat="44.59886" lon="5.61866">
        <ele>1539.54</ele>
        <time>2017-07-11T10:31:15.000Z</time>
      </trkpt>
      <trkpt lat="44.59895" lon="5.61873">
        <ele>1537.07</ele>
        <time>2017-07-11T10:31:35.000Z</time>
      </trkpt>
      <trkpt lat="44.59905" lon="5.61881">
        <ele>1534.58</ele>
        <time>2017-07-11T10:31:45.000Z</time>
      </trkpt>
      <trkpt lat="44.59932" lon="5.61876">
        <ele>1538.33</ele>
        <time>2017-07-11T10:32:16.000Z</time>
      </trkpt>
      <trkpt lat="44.59936" lon="5.61889">
        <ele>1532.44</ele>
        <time>2017-07-11T10:32:44.000Z</time>
      </trkpt>
      <trkpt lat="44.59943" lon="5.61881">
        <ele>1536.11</ele>
        <time>2017-07-11T10:32:55.000Z</time>
      </trkpt>
      <trkpt lat="44.59952" lon="5.61886">
        <ele>1533.95</ele>
        <time>2017-07-11T10:33:18.000Z</time>
      </trkpt>
      <trkpt lat="44.59964" lon="5.61886">
        <ele>1534.14</ele>
        <time>2017-07-11T10:33:28.000Z</time>
      </trkpt>
      <trkpt lat="44.59973" lon="5.61887">
        <ele>1533.36</ele>
        <time>2017-07-11T10:33:39.000Z</time>
      </trkpt>
      <trkpt lat="44.59982" lon="5.61885">
        <ele>1534.44</ele>
        <time>2017-07-11T10:33:55.000Z</time>
      </trkpt>
      <trkpt lat="44.60023" lon="5.61888">
        <ele>1533.05</ele>
        <time>2017-07-11T10:34:30.000Z</time>
      </trkpt>
      <trkpt lat="44.60027" lon="5.619">
        <ele>1527.29</ele>
        <time>2017-07-11T10:35:03.000Z</time>
      </trkpt>
      <trkpt lat="44.60036" lon="5.61906">
        <ele>1524.6</ele>
        <time>2017-07-11T10:35:23.000Z</time>
      </trkpt>
      <trkpt lat="44.60057" lon="5.6191">
        <ele>1522.77</ele>
        <time>2017-07-11T10:35:54.000Z</time>
      </trkpt>
      <trkpt lat="44.60059" lon="5.61923">
        <ele>1517.05</ele>
        <time>2017-07-11T10:36:20.000Z</time>
      </trkpt>
      <trkpt lat="44.60067" lon="5.61927">
        <ele>1514.98</ele>
        <time>2017-07-11T10:37:35.000Z</time>
      </trkpt>
      <trkpt lat="44.60074" lon="5.61936">
        <ele>1510.96</ele>
        <time>2017-07-11T10:38:04.000Z</time>
      </trkpt>
      <trkpt lat="44.60085" lon="5.61939">
        <ele>1509.34</ele>
        <time>2017-07-11T10:38:17.000Z</time>
      </trkpt>
      <trkpt lat="44.60093" lon="5.61946">
        <ele>1506.26</ele>
        <time>2017-07-11T10:38:31.000Z</time>
      </trkpt>
      <trkpt lat="44.60102" lon="5.61944">
        <ele>1507.29</ele>
        <time>2017-07-11T10:38:54.000Z</time>
      </trkpt>
      <trkpt lat="44.60109" lon="5.61953">
        <ele>1503.5</ele>
        <time>2017-07-11T10:39:30.000Z</time>
      </trkpt>
      <trkpt lat="44.6012" lon="5.61957">
        <ele>1502.5</ele>
        <time>2017-07-11T10:39:40.000Z</time>
      </trkpt>
      <trkpt lat="44.60131" lon="5.61953">
        <ele>1503.74</ele>
        <time>2017-07-11T10:39:50.000Z</time>
      </trkpt>
      <trkpt lat="44.60138" lon="5.61966">
        <ele>1499.75</ele>
        <time>2017-07-11T10:40:00.000Z</time>
      </trkpt>
      <trkpt lat="44.60129" lon="5.61964">
        <ele>1500.32</ele>
        <time>2017-07-11T10:40:10.000Z</time>
      </trkpt>
      <trkpt lat="44.60121" lon="5.61973">
        <ele>1497.18</ele>
        <time>2017-07-11T10:41:43.000Z</time>
      </trkpt>
      <trkpt lat="44.60129" lon="5.61985">
        <ele>1493.81</ele>
        <time>2017-07-11T10:42:48.000Z</time>
      </trkpt>
      <trkpt lat="44.60144" lon="5.6199">
        <ele>1493.55</ele>
        <time>2017-07-11T10:42:58.000Z</time>
      </trkpt>
      <trkpt lat="44.60158" lon="5.61992">
        <ele>1493.5</ele>
        <time>2017-07-11T10:43:08.000Z</time>
      </trkpt>
      <trkpt lat="44.60168" lon="5.61997">
        <ele>1492.59</ele>
        <time>2017-07-11T10:43:29.000Z</time>
      </trkpt>
      <trkpt lat="44.60176" lon="5.61993">
        <ele>1493.23</ele>
        <time>2017-07-11T10:43:57.000Z</time>
      </trkpt>
      <trkpt lat="44.60186" lon="5.61991">
        <ele>1492.89</ele>
        <time>2017-07-11T10:44:09.000Z</time>
      </trkpt>
      <trkpt lat="44.60196" lon="5.61992">
        <ele>1491.76</ele>
        <time>2017-07-11T10:44:23.000Z</time>
      </trkpt>
      <trkpt lat="44.60205" lon="5.61999">
        <ele>1490.07</ele>
        <time>2017-07-11T10:44:33.000Z</time>
      </trkpt>
      <trkpt lat="44.60216" lon="5.62">
        <ele>1488.84</ele>
        <time>2017-07-11T10:44:45.000Z</time>
      </trkpt>
      <trkpt lat="44.60225" lon="5.62001">
        <ele>1487.72</ele>
        <time>2017-07-11T10:45:04.000Z</time>
      </trkpt>
      <trkpt lat="44.60236" lon="5.62002">
        <ele>1486.49</ele>
        <time>2017-07-11T10:45:14.000Z</time>
      </trkpt>
      <trkpt lat="44.60244" lon="5.62007">
        <ele>1485.51</ele>
        <time>2017-07-11T10:46:02.000Z</time>
      </trkpt>
      <trkpt lat="44.60253" lon="5.62006">
        <ele>1484.64</ele>
        <time>2017-07-11T10:46:24.000Z</time>
      </trkpt>
      <trkpt lat="44.60253" lon="5.61992">
        <ele>1484.56</ele>
        <time>2017-07-11T10:46:36.000Z</time>
      </trkpt>
      <trkpt lat="44.60266" lon="5.61997">
        <ele>1483.08</ele>
        <time>2017-07-11T10:46:46.000Z</time>
      </trkpt>
      <trkpt lat="44.60268" lon="5.61982">
        <ele>1481.98</ele>
        <time>2017-07-11T10:47:00.000Z</time>
      </trkpt>
      <trkpt lat="44.60267" lon="5.61968">
        <ele>1480.8</ele>
        <time>2017-07-11T10:47:12.000Z</time>
      </trkpt>
      <trkpt lat="44.60273" lon="5.61992">
        <ele>1481.84</ele>
        <time>2017-07-11T10:47:22.000Z</time>
      </trkpt>
      <trkpt lat="44.6027" lon="5.61977">
        <ele>1481.19</ele>
        <time>2017-07-11T10:48:02.000Z</time>
      </trkpt>
      <trkpt lat="44.60269" lon="5.61953">
        <ele>1478.87</ele>
        <time>2017-07-11T10:48:12.000Z</time>
      </trkpt>
      <trkpt lat="44.60273" lon="5.61941">
        <ele>1476.81</ele>
        <time>2017-07-11T10:48:22.000Z</time>
      </trkpt>
      <trkpt lat="44.60282" lon="5.61944">
        <ele>1475.04</ele>
        <time>2017-07-11T10:48:32.000Z</time>
      </trkpt>
      <trkpt lat="44.60286" lon="5.61932">
        <ele>1472.7</ele>
        <time>2017-07-11T10:49:04.000Z</time>
      </trkpt>
      <trkpt lat="44.60291" lon="5.61921">
        <ele>1470.35</ele>
        <time>2017-07-11T10:49:48.000Z</time>
      </trkpt>
      <trkpt lat="44.60296" lon="5.61911">
        <ele>1468.05</ele>
        <time>2017-07-11T10:50:17.000Z</time>
      </trkpt>
      <trkpt lat="44.60307" lon="5.61901">
        <ele>1464.36</ele>
        <time>2017-07-11T10:50:27.000Z</time>
      </trkpt>
      <trkpt lat="44.60316" lon="5.61895">
        <ele>1461.45</ele>
        <time>2017-07-11T10:51:02.000Z</time>
      </trkpt>
      <trkpt lat="44.60322" lon="5.61867">
        <ele>1455.98</ele>
        <time>2017-07-11T10:51:12.000Z</time>
      </trkpt>
      <trkpt lat="44.60332" lon="5.61865">
        <ele>1454.14</ele>
        <time>2017-07-11T10:51:22.000Z</time>
      </trkpt>
      <trkpt lat="44.60321" lon="5.61845">
        <ele>1453.07</ele>
        <time>2017-07-11T10:51:32.000Z</time>
      </trkpt>
      <trkpt lat="44.60328" lon="5.61837">
        <ele>1450.42</ele>
        <time>2017-07-11T10:51:54.000Z</time>
      </trkpt>
      <trkpt lat="44.60335" lon="5.61828">
        <ele>1448.09</ele>
        <time>2017-07-11T10:52:04.000Z</time>
      </trkpt>
      <trkpt lat="44.60343" lon="5.61835">
        <ele>1448.29</ele>
        <time>2017-07-11T10:52:19.000Z</time>
      </trkpt>
      <trkpt lat="44.60346" lon="5.61821">
        <ele>1446.22</ele>
        <time>2017-07-11T10:52:29.000Z</time>
      </trkpt>
      <trkpt lat="44.60344" lon="5.61808">
        <ele>1444.84</ele>
        <time>2017-07-11T10:52:39.000Z</time>
      </trkpt>
      <trkpt lat="44.60342" lon="5.61795">
        <ele>1443.57</ele>
        <time>2017-07-11T10:52:51.000Z</time>
      </trkpt>
      <trkpt lat="44.60353" lon="5.61785">
        <ele>1441.42</ele>
        <time>2017-07-11T10:53:01.000Z</time>
      </trkpt>
      <trkpt lat="44.60349" lon="5.6177">
        <ele>1440.36</ele>
        <time>2017-07-11T10:53:11.000Z</time>
      </trkpt>
      <trkpt lat="44.60356" lon="5.61762">
        <ele>1438.71</ele>
        <time>2017-07-11T10:53:28.000Z</time>
      </trkpt>
      <trkpt lat="44.60361" lon="5.61751">
        <ele>1437.03</ele>
        <time>2017-07-11T10:53:38.000Z</time>
      </trkpt>
      <trkpt lat="44.60364" lon="5.61738">
        <ele>1435.35</ele>
        <time>2017-07-11T10:53:49.000Z</time>
      </trkpt>
      <trkpt lat="44.60365" lon="5.61724">
        <ele>1433.89</ele>
        <time>2017-07-11T10:53:59.000Z</time>
      </trkpt>
      <trkpt lat="44.6037" lon="5.61712">
        <ele>1432.03</ele>
        <time>2017-07-11T10:54:18.000Z</time>
      </trkpt>
      <trkpt lat="44.6036" lon="5.61693">
        <ele>1432.42</ele>
        <time>2017-07-11T10:54:28.000Z</time>
      </trkpt>
      <trkpt lat="44.60373" lon="5.61696">
        <ele>1429.86</ele>
        <time>2017-07-11T10:54:38.000Z</time>
      </trkpt>
      <trkpt lat="44.60373" lon="5.61679">
        <ele>1428.25</ele>
        <time>2017-07-11T10:54:54.000Z</time>
      </trkpt>
      <trkpt lat="44.60383" lon="5.61675">
        <ele>1425.77</ele>
        <time>2017-07-11T10:55:33.000Z</time>
      </trkpt>
      <trkpt lat="44.60386" lon="5.61662">
        <ele>1423.69</ele>
        <time>2017-07-11T10:55:48.000Z</time>
      </trkpt>
      <trkpt lat="44.60386" lon="5.61648">
        <ele>1421.52</ele>
        <time>2017-07-11T10:55:58.000Z</time>
      </trkpt>
      <trkpt lat="44.60393" lon="5.61639">
        <ele>1418.92</ele>
        <time>2017-07-11T10:56:09.000Z</time>
      </trkpt>
      <trkpt lat="44.60387" lon="5.61623">
        <ele>1417.95</ele>
        <time>2017-07-11T10:56:19.000Z</time>
      </trkpt>
      <trkpt lat="44.60398" lon="5.61618">
        <ele>1414.63</ele>
        <time>2017-07-11T10:56:29.000Z</time>
      </trkpt>
      <trkpt lat="44.60396" lon="5.61598">
        <ele>1411.91</ele>
        <time>2017-07-11T10:56:39.000Z</time>
      </trkpt>
      <trkpt lat="44.60396" lon="5.61584">
        <ele>1409.61</ele>
        <time>2017-07-11T10:56:49.000Z</time>
      </trkpt>
      <trkpt lat="44.60402" lon="5.61574">
        <ele>1406.31</ele>
        <time>2017-07-11T10:57:06.000Z</time>
      </trkpt>
      <trkpt lat="44.60405" lon="5.61561">
        <ele>1403.45</ele>
        <time>2017-07-11T10:57:16.000Z</time>
      </trkpt>
      <trkpt lat="44.60412" lon="5.61549">
        <ele>1399.86</ele>
        <time>2017-07-11T10:57:26.000Z</time>
      </trkpt>
      <trkpt lat="44.60415" lon="5.61535">
        <ele>1396.71</ele>
        <time>2017-07-11T10:57:40.000Z</time>
      </trkpt>
      <trkpt lat="44.60417" lon="5.61521">
        <ele>1393.72</ele>
        <time>2017-07-11T10:57:53.000Z</time>
      </trkpt>
      <trkpt lat="44.60421" lon="5.6151">
        <ele>1391.06</ele>
        <time>2017-07-11T10:58:04.000Z</time>
      </trkpt>
      <trkpt lat="44.60432" lon="5.61509">
        <ele>1390.25</ele>
        <time>2017-07-11T10:58:14.000Z</time>
      </trkpt>
      <trkpt lat="44.6044" lon="5.61503">
        <ele>1389.38</ele>
        <time>2017-07-11T10:58:29.000Z</time>
      </trkpt>
      <trkpt lat="44.60432" lon="5.61479">
        <ele>1384.47</ele>
        <time>2017-07-11T10:58:39.000Z</time>
      </trkpt>
      <trkpt lat="44.60423" lon="5.61481">
        <ele>1385.86</ele>
        <time>2017-07-11T10:58:50.000Z</time>
      </trkpt>
      <trkpt lat="44.60433" lon="5.61483">
        <ele>1385.29</ele>
        <time>2017-07-11T10:59:02.000Z</time>
      </trkpt>
      <trkpt lat="44.60443" lon="5.61479">
        <ele>1384.42</ele>
        <time>2017-07-11T10:59:17.000Z</time>
      </trkpt>
      <trkpt lat="44.60449" lon="5.61469">
        <ele>1382.75</ele>
        <time>2017-07-11T10:59:32.000Z</time>
      </trkpt>
      <trkpt lat="44.60457" lon="5.61455">
        <ele>1380.08</ele>
        <time>2017-07-11T10:59:42.000Z</time>
      </trkpt>
      <trkpt lat="44.60454" lon="5.61441">
        <ele>1376.83</ele>
        <time>2017-07-11T10:59:55.000Z</time>
      </trkpt>
      <trkpt lat="44.60462" lon="5.61433">
        <ele>1374.96</ele>
        <time>2017-07-11T11:00:09.000Z</time>
      </trkpt>
      <trkpt lat="44.6046" lon="5.61419">
        <ele>1371.68</ele>
        <time>2017-07-11T11:00:23.000Z</time>
      </trkpt>
      <trkpt lat="44.60456" lon="5.61406">
        <ele>1368.57</ele>
        <time>2017-07-11T11:00:34.000Z</time>
      </trkpt>
      <trkpt lat="44.60455" lon="5.61392">
        <ele>1365.14</ele>
        <time>2017-07-11T11:00:48.000Z</time>
      </trkpt>
      <trkpt lat="44.60462" lon="5.61381">
        <ele>1362.08</ele>
        <time>2017-07-11T11:01:03.000Z</time>
      </trkpt>
      <trkpt lat="44.60454" lon="5.61373">
        <ele>1360.89</ele>
        <time>2017-07-11T11:01:16.000Z</time>
      </trkpt>
      <trkpt lat="44.60459" lon="5.61356">
        <ele>1356</ele>
        <time>2017-07-11T11:02:25.000Z</time>
      </trkpt>
      <trkpt lat="44.60471" lon="5.6133">
        <ele>1347.66</ele>
        <time>2017-07-11T11:02:35.000Z</time>
      </trkpt>
      <trkpt lat="44.60468" lon="5.61317">
        <ele>1344.15</ele>
        <time>2017-07-11T11:02:49.000Z</time>
      </trkpt>
      <trkpt lat="44.60465" lon="5.61303">
        <ele>1340.34</ele>
        <time>2017-07-11T11:03:01.000Z</time>
      </trkpt>
      <trkpt lat="44.60473" lon="5.61297">
        <ele>1337.65</ele>
        <time>2017-07-11T11:03:15.000Z</time>
      </trkpt>
      <trkpt lat="44.60467" lon="5.61287">
        <ele>1335.1</ele>
        <time>2017-07-11T11:03:37.000Z</time>
      </trkpt>
      <trkpt lat="44.60463" lon="5.61272">
        <ele>1331.23</ele>
        <time>2017-07-11T11:03:51.000Z</time>
      </trkpt>
      <trkpt lat="44.60462" lon="5.61259">
        <ele>1327.57</ele>
        <time>2017-07-11T11:04:02.000Z</time>
      </trkpt>
      <trkpt lat="44.60468" lon="5.61249">
        <ele>1324.06</ele>
        <time>2017-07-11T11:04:13.000Z</time>
      </trkpt>
      <trkpt lat="44.60466" lon="5.61228">
        <ele>1318.66</ele>
        <time>2017-07-11T11:04:23.000Z</time>
      </trkpt>
      <trkpt lat="44.60477" lon="5.61227">
        <ele>1317.53</ele>
        <time>2017-07-11T11:04:42.000Z</time>
      </trkpt>
      <trkpt lat="44.60477" lon="5.61212">
        <ele>1314.12</ele>
        <time>2017-07-11T11:07:02.000Z</time>
      </trkpt>
      <trkpt lat="44.60479" lon="5.61173">
        <ele>1305.5</ele>
        <time>2017-07-11T11:07:12.000Z</time>
      </trkpt>
      <trkpt lat="44.60479" lon="5.61186">
        <ele>1308.3</ele>
        <time>2017-07-11T11:07:28.000Z</time>
      </trkpt>
      <trkpt lat="44.6048" lon="5.6117">
        <ele>1304.91</ele>
        <time>2017-07-11T11:07:53.000Z</time>
      </trkpt>
      <trkpt lat="44.60481" lon="5.61152">
        <ele>1300.9</ele>
        <time>2017-07-11T11:08:03.000Z</time>
      </trkpt>
      <trkpt lat="44.60477" lon="5.61139">
        <ele>1297.88</ele>
        <time>2017-07-11T11:08:14.000Z</time>
      </trkpt>
      <trkpt lat="44.60468" lon="5.61134">
        <ele>1296.32</ele>
        <time>2017-07-11T11:08:24.000Z</time>
      </trkpt>
      <trkpt lat="44.60457" lon="5.61129">
        <ele>1294.91</ele>
        <time>2017-07-11T11:08:34.000Z</time>
      </trkpt>
      <trkpt lat="44.60448" lon="5.61116">
        <ele>1291.46</ele>
        <time>2017-07-11T11:08:44.000Z</time>
      </trkpt>
      <trkpt lat="44.60446" lon="5.61103">
        <ele>1288.06</ele>
        <time>2017-07-11T11:08:54.000Z</time>
      </trkpt>
      <trkpt lat="44.60441" lon="5.61088">
        <ele>1284.48</ele>
        <time>2017-07-11T11:09:04.000Z</time>
      </trkpt>
      <trkpt lat="44.60437" lon="5.61077">
        <ele>1281.9</ele>
        <time>2017-07-11T11:09:17.000Z</time>
      </trkpt>
      <trkpt lat="44.60433" lon="5.61062">
        <ele>1278.74</ele>
        <time>2017-07-11T11:09:27.000Z</time>
      </trkpt>
      <trkpt lat="44.60426" lon="5.61051">
        <ele>1276.02</ele>
        <time>2017-07-11T11:09:39.000Z</time>
      </trkpt>
      <trkpt lat="44.60422" lon="5.6104">
        <ele>1273.58</ele>
        <time>2017-07-11T11:10:57.000Z</time>
      </trkpt>
      <trkpt lat="44.60416" lon="5.6103">
        <ele>1271.25</ele>
        <time>2017-07-11T11:11:11.000Z</time>
      </trkpt>
      <trkpt lat="44.60408" lon="5.61021">
        <ele>1269.11</ele>
        <time>2017-07-11T11:11:26.000Z</time>
      </trkpt>
      <trkpt lat="44.60401" lon="5.61012">
        <ele>1266.91</ele>
        <time>2017-07-11T11:11:39.000Z</time>
      </trkpt>
      <trkpt lat="44.60392" lon="5.61006">
        <ele>1265.16</ele>
        <time>2017-07-11T11:13:06.000Z</time>
      </trkpt>
      <trkpt lat="44.60386" lon="5.60996">
        <ele>1263.15</ele>
        <time>2017-07-11T11:13:21.000Z</time>
      </trkpt>
      <trkpt lat="44.60377" lon="5.60988">
        <ele>1261.25</ele>
        <time>2017-07-11T11:13:32.000Z</time>
      </trkpt>
      <trkpt lat="44.60375" lon="5.60975">
        <ele>1259.51</ele>
        <time>2017-07-11T11:13:50.000Z</time>
      </trkpt>
      <trkpt lat="44.60368" lon="5.60966">
        <ele>1258.02</ele>
        <time>2017-07-11T11:14:00.000Z</time>
      </trkpt>
      <trkpt lat="44.60361" lon="5.60955">
        <ele>1256.47</ele>
        <time>2017-07-11T11:14:10.000Z</time>
      </trkpt>
      <trkpt lat="44.60351" lon="5.6095">
        <ele>1255.18</ele>
        <time>2017-07-11T11:14:23.000Z</time>
      </trkpt>
      <trkpt lat="44.60341" lon="5.60933">
        <ele>1252.99</ele>
        <time>2017-07-11T11:14:33.000Z</time>
      </trkpt>
      <trkpt lat="44.60332" lon="5.60929">
        <ele>1252.09</ele>
        <time>2017-07-11T11:14:59.000Z</time>
      </trkpt>
      <trkpt lat="44.60323" lon="5.60922">
        <ele>1250.78</ele>
        <time>2017-07-11T11:15:09.000Z</time>
      </trkpt>
      <trkpt lat="44.60315" lon="5.60915">
        <ele>1249.44</ele>
        <time>2017-07-11T11:15:25.000Z</time>
      </trkpt>
      <trkpt lat="44.60292" lon="5.60924">
        <ele>1249.87</ele>
        <time>2017-07-11T11:15:35.000Z</time>
      </trkpt>
      <trkpt lat="44.6031" lon="5.60906">
        <ele>1247.85</ele>
        <time>2017-07-11T11:15:45.000Z</time>
      </trkpt>
      <trkpt lat="44.60314" lon="5.60893">
        <ele>1247</ele>
        <time>2017-07-11T11:15:57.000Z</time>
      </trkpt>
      <trkpt lat="44.60319" lon="5.60881">
        <ele>1246.79</ele>
        <time>2017-07-11T11:16:09.000Z</time>
      </trkpt>
      <trkpt lat="44.60316" lon="5.60867">
        <ele>1245.48</ele>
        <time>2017-07-11T11:16:19.000Z</time>
      </trkpt>
      <trkpt lat="44.60308" lon="5.60859">
        <ele>1243.36</ele>
        <time>2017-07-11T11:16:29.000Z</time>
      </trkpt>
      <trkpt lat="44.60298" lon="5.6085">
        <ele>1240.32</ele>
        <time>2017-07-11T11:16:39.000Z</time>
      </trkpt>
      <trkpt lat="44.60288" lon="5.60847">
        <ele>1237.79</ele>
        <time>2017-07-11T11:16:51.000Z</time>
      </trkpt>
      <trkpt lat="44.60281" lon="5.60839">
        <ele>1235.22</ele>
        <time>2017-07-11T11:17:01.000Z</time>
      </trkpt>
      <trkpt lat="44.60272" lon="5.60839">
        <ele>1233.46</ele>
        <time>2017-07-11T11:17:11.000Z</time>
      </trkpt>
      <trkpt lat="44.60264" lon="5.60831">
        <ele>1231.01</ele>
        <time>2017-07-11T11:17:51.000Z</time>
      </trkpt>
      <trkpt lat="44.60254" lon="5.60829">
        <ele>1229.58</ele>
        <time>2017-07-11T11:18:09.000Z</time>
      </trkpt>
      <trkpt lat="44.60247" lon="5.60838">
        <ele>1230.72</ele>
        <time>2017-07-11T11:18:25.000Z</time>
      </trkpt>
      <trkpt lat="44.60235" lon="5.60843">
        <ele>1231.62</ele>
        <time>2017-07-11T11:18:41.000Z</time>
      </trkpt>
      <trkpt lat="44.60226" lon="5.60841">
        <ele>1231.51</ele>
        <time>2017-07-11T11:19:24.000Z</time>
      </trkpt>
      <trkpt lat="44.60217" lon="5.60836">
        <ele>1230.87</ele>
        <time>2017-07-11T11:19:34.000Z</time>
      </trkpt>
      <trkpt lat="44.60211" lon="5.60827">
        <ele>1229.24</ele>
        <time>2017-07-11T11:19:45.000Z</time>
      </trkpt>
      <trkpt lat="44.60207" lon="5.60814">
        <ele>1226.91</ele>
        <time>2017-07-11T11:19:55.000Z</time>
      </trkpt>
      <trkpt lat="44.60206" lon="5.60801">
        <ele>1224.79</ele>
        <time>2017-07-11T11:20:05.000Z</time>
      </trkpt>
      <trkpt lat="44.60202" lon="5.60789">
        <ele>1223.23</ele>
        <time>2017-07-11T11:20:15.000Z</time>
      </trkpt>
      <trkpt lat="44.60194" lon="5.60782">
        <ele>1222.72</ele>
        <time>2017-07-11T11:20:25.000Z</time>
      </trkpt>
      <trkpt lat="44.60182" lon="5.60771">
        <ele>1221.99</ele>
        <time>2017-07-11T11:20:35.000Z</time>
      </trkpt>
      <trkpt lat="44.60189" lon="5.60763">
        <ele>1220.02</ele>
        <time>2017-07-11T11:20:46.000Z</time>
      </trkpt>
      <trkpt lat="44.60198" lon="5.60758">
        <ele>1218.85</ele>
        <time>2017-07-11T11:21:06.000Z</time>
      </trkpt>
      <trkpt lat="44.6021" lon="5.60752">
        <ele>1217.85</ele>
        <time>2017-07-11T11:21:16.000Z</time>
      </trkpt>
      <trkpt lat="44.60203" lon="5.6074">
        <ele>1215.99</ele>
        <time>2017-07-11T11:21:29.000Z</time>
      </trkpt>
      <trkpt lat="44.60211" lon="5.60722">
        <ele>1213.52</ele>
        <time>2017-07-11T11:21:48.000Z</time>
      </trkpt>
      <trkpt lat="44.60209" lon="5.60741">
        <ele>1216.23</ele>
        <time>2017-07-11T11:21:58.000Z</time>
      </trkpt>
      <trkpt lat="44.60202" lon="5.60731">
        <ele>1214.55</ele>
        <time>2017-07-11T11:22:15.000Z</time>
      </trkpt>
      <trkpt lat="44.60195" lon="5.60716">
        <ele>1212.17</ele>
        <time>2017-07-11T11:22:25.000Z</time>
      </trkpt>
      <trkpt lat="44.60192" lon="5.60703">
        <ele>1210.15</ele>
        <time>2017-07-11T11:22:46.000Z</time>
      </trkpt>
      <trkpt lat="44.60186" lon="5.60691">
        <ele>1208.3</ele>
        <time>2017-07-11T11:22:56.000Z</time>
      </trkpt>
      <trkpt lat="44.6018" lon="5.60681">
        <ele>1206.84</ele>
        <time>2017-07-11T11:23:08.000Z</time>
      </trkpt>
      <trkpt lat="44.60177" lon="5.60668">
        <ele>1205.25</ele>
        <time>2017-07-11T11:23:20.000Z</time>
      </trkpt>
      <trkpt lat="44.60174" lon="5.60656">
        <ele>1203.71</ele>
        <time>2017-07-11T11:23:40.000Z</time>
      </trkpt>
      <trkpt lat="44.60169" lon="5.60645">
        <ele>1202.36</ele>
        <time>2017-07-11T11:23:50.000Z</time>
      </trkpt>
      <trkpt lat="44.60163" lon="5.60635">
        <ele>1201.04</ele>
        <time>2017-07-11T11:24:24.000Z</time>
      </trkpt>
      <trkpt lat="44.60156" lon="5.60624">
        <ele>1199.73</ele>
        <time>2017-07-11T11:24:34.000Z</time>
      </trkpt>
      <trkpt lat="44.60148" lon="5.60614">
        <ele>1198.65</ele>
        <time>2017-07-11T11:24:44.000Z</time>
      </trkpt>
      <trkpt lat="44.60144" lon="5.60604">
        <ele>1197.49</ele>
        <time>2017-07-11T11:25:02.000Z</time>
      </trkpt>
      <trkpt lat="44.6014" lon="5.60591">
        <ele>1196.34</ele>
        <time>2017-07-11T11:25:23.000Z</time>
      </trkpt>
      <trkpt lat="44.60126" lon="5.60575">
        <ele>1194.82</ele>
        <time>2017-07-11T11:25:33.000Z</time>
      </trkpt>
      <trkpt lat="44.60115" lon="5.60569">
        <ele>1193.97</ele>
        <time>2017-07-11T11:25:43.000Z</time>
      </trkpt>
      <trkpt lat="44.60106" lon="5.60568">
        <ele>1193.47</ele>
        <time>2017-07-11T11:26:06.000Z</time>
      </trkpt>
      <trkpt lat="44.60096" lon="5.60574">
        <ele>1193.52</ele>
        <time>2017-07-11T11:26:53.000Z</time>
      </trkpt>
      <trkpt lat="44.6008" lon="5.6059">
        <ele>1194.79</ele>
        <time>2017-07-11T11:27:03.000Z</time>
      </trkpt>
      <trkpt lat="44.60068" lon="5.60591">
        <ele>1194.36</ele>
        <time>2017-07-11T11:27:13.000Z</time>
      </trkpt>
      <trkpt lat="44.60055" lon="5.60588">
        <ele>1193.36</ele>
        <time>2017-07-11T11:27:23.000Z</time>
      </trkpt>
      <trkpt lat="44.60046" lon="5.60593">
        <ele>1193.66</ele>
        <time>2017-07-11T11:27:38.000Z</time>
      </trkpt>
      <trkpt lat="44.60037" lon="5.60588">
        <ele>1192.41</ele>
        <time>2017-07-11T11:27:53.000Z</time>
      </trkpt>
      <trkpt lat="44.60027" lon="5.60585">
        <ele>1191.55</ele>
        <time>2017-07-11T11:28:03.000Z</time>
      </trkpt>
      <trkpt lat="44.60015" lon="5.60579">
        <ele>1190.2</ele>
        <time>2017-07-11T11:28:13.000Z</time>
      </trkpt>
      <trkpt lat="44.60006" lon="5.60583">
        <ele>1190.17</ele>
        <time>2017-07-11T11:28:26.000Z</time>
      </trkpt>
      <trkpt lat="44.59997" lon="5.60582">
        <ele>1189.61</ele>
        <time>2017-07-11T11:28:38.000Z</time>
      </trkpt>
      <trkpt lat="44.59987" lon="5.60581">
        <ele>1189</ele>
        <time>2017-07-11T11:28:49.000Z</time>
      </trkpt>
      <trkpt lat="44.59977" lon="5.60579">
        <ele>1188.24</ele>
        <time>2017-07-11T11:28:59.000Z</time>
      </trkpt>
      <trkpt lat="44.59969" lon="5.60575">
        <ele>1187.25</ele>
        <time>2017-07-11T11:29:10.000Z</time>
      </trkpt>
      <trkpt lat="44.59959" lon="5.60572">
        <ele>1186.44</ele>
        <time>2017-07-11T11:29:22.000Z</time>
      </trkpt>
      <trkpt lat="44.59949" lon="5.60582">
        <ele>1186.9</ele>
        <time>2017-07-11T11:29:32.000Z</time>
      </trkpt>
      <trkpt lat="44.5994" lon="5.60579">
        <ele>1186.04</ele>
        <time>2017-07-11T11:29:42.000Z</time>
      </trkpt>
      <trkpt lat="44.59937" lon="5.60593">
        <ele>1188.42</ele>
        <time>2017-07-11T11:29:55.000Z</time>
      </trkpt>
      <trkpt lat="44.59936" lon="5.60568">
        <ele>1184.71</ele>
        <time>2017-07-11T11:30:05.000Z</time>
      </trkpt>
      <trkpt lat="44.59927" lon="5.60573">
        <ele>1184.8</ele>
        <time>2017-07-11T11:30:18.000Z</time>
      </trkpt>
      <trkpt lat="44.59922" lon="5.60562">
        <ele>1183.67</ele>
        <time>2017-07-11T11:30:30.000Z</time>
      </trkpt>
      <trkpt lat="44.59913" lon="5.60561">
        <ele>1183.16</ele>
        <time>2017-07-11T11:30:40.000Z</time>
      </trkpt>
      <trkpt lat="44.59906" lon="5.60549">
        <ele>1182.16</ele>
        <time>2017-07-11T11:30:53.000Z</time>
      </trkpt>
      <trkpt lat="44.59896" lon="5.60554">
        <ele>1181.65</ele>
        <time>2017-07-11T11:31:03.000Z</time>
      </trkpt>
      <trkpt lat="44.59886" lon="5.60549">
        <ele>1180.34</ele>
        <time>2017-07-11T11:31:13.000Z</time>
      </trkpt>
      <trkpt lat="44.59877" lon="5.60544">
        <ele>1179.16</ele>
        <time>2017-07-11T11:31:35.000Z</time>
      </trkpt>
      <trkpt lat="44.59867" lon="5.6054">
        <ele>1177.77</ele>
        <time>2017-07-11T11:31:45.000Z</time>
      </trkpt>
      <trkpt lat="44.59858" lon="5.60528">
        <ele>1175.52</ele>
        <time>2017-07-11T11:31:55.000Z</time>
      </trkpt>
      <trkpt lat="44.59853" lon="5.60516">
        <ele>1173.71</ele>
        <time>2017-07-11T11:32:05.000Z</time>
      </trkpt>
      <trkpt lat="44.59841" lon="5.60513">
        <ele>1172.24</ele>
        <time>2017-07-11T11:32:15.000Z</time>
      </trkpt>
      <trkpt lat="44.59834" lon="5.60505">
        <ele>1170.61</ele>
        <time>2017-07-11T11:32:28.000Z</time>
      </trkpt>
      <trkpt lat="44.59824" lon="5.60504">
        <ele>1169.95</ele>
        <time>2017-07-11T11:32:41.000Z</time>
      </trkpt>
      <trkpt lat="44.59816" lon="5.60497">
        <ele>1168.63</ele>
        <time>2017-07-11T11:32:52.000Z</time>
      </trkpt>
      <trkpt lat="44.59804" lon="5.60497">
        <ele>1168.28</ele>
        <time>2017-07-11T11:33:02.000Z</time>
      </trkpt>
      <trkpt lat="44.59799" lon="5.60482">
        <ele>1165.94</ele>
        <time>2017-07-11T11:33:15.000Z</time>
      </trkpt>
      <trkpt lat="44.59789" lon="5.60477">
        <ele>1164.82</ele>
        <time>2017-07-11T11:33:25.000Z</time>
      </trkpt>
      <trkpt lat="44.59786" lon="5.60464">
        <ele>1163.02</ele>
        <time>2017-07-11T11:33:36.000Z</time>
      </trkpt>
      <trkpt lat="44.59782" lon="5.6045">
        <ele>1161.42</ele>
        <time>2017-07-11T11:33:46.000Z</time>
      </trkpt>
      <trkpt lat="44.59771" lon="5.60446">
        <ele>1160.01</ele>
        <time>2017-07-11T11:33:56.000Z</time>
      </trkpt>
      <trkpt lat="44.59764" lon="5.60438">
        <ele>1158.64</ele>
        <time>2017-07-11T11:34:08.000Z</time>
      </trkpt>
      <trkpt lat="44.59756" lon="5.60431">
        <ele>1157.37</ele>
        <time>2017-07-11T11:34:21.000Z</time>
      </trkpt>
      <trkpt lat="44.59748" lon="5.60416">
        <ele>1155.79</ele>
        <time>2017-07-11T11:34:31.000Z</time>
      </trkpt>
      <trkpt lat="44.59742" lon="5.60404">
        <ele>1155.09</ele>
        <time>2017-07-11T11:34:43.000Z</time>
      </trkpt>
      <trkpt lat="44.59746" lon="5.60392">
        <ele>1156.06</ele>
        <time>2017-07-11T11:34:56.000Z</time>
      </trkpt>
      <trkpt lat="44.59757" lon="5.60391">
        <ele>1157.57</ele>
        <time>2017-07-11T11:35:10.000Z</time>
      </trkpt>
      <trkpt lat="44.59766" lon="5.60388">
        <ele>1159.08</ele>
        <time>2017-07-11T11:35:22.000Z</time>
      </trkpt>
      <trkpt lat="44.5977" lon="5.60373">
        <ele>1161.38</ele>
        <time>2017-07-11T11:35:32.000Z</time>
      </trkpt>
      <trkpt lat="44.5976" lon="5.60364">
        <ele>1161.35</ele>
        <time>2017-07-11T11:36:04.000Z</time>
      </trkpt>
      <trkpt lat="44.59744" lon="5.6037">
        <ele>1157.96</ele>
        <time>2017-07-11T11:36:14.000Z</time>
      </trkpt>
      <trkpt lat="44.59735" lon="5.60365">
        <ele>1156.91</ele>
        <time>2017-07-11T11:36:25.000Z</time>
      </trkpt>
      <trkpt lat="44.59726" lon="5.60365">
        <ele>1155.01</ele>
        <time>2017-07-11T11:36:42.000Z</time>
      </trkpt>
      <trkpt lat="44.59716" lon="5.60367">
        <ele>1152.82</ele>
        <time>2017-07-11T11:36:56.000Z</time>
      </trkpt>
      <trkpt lat="44.59702" lon="5.60365">
        <ele>1149.7</ele>
        <time>2017-07-11T11:37:06.000Z</time>
      </trkpt>
      <trkpt lat="44.59687" lon="5.60358">
        <ele>1146.21</ele>
        <time>2017-07-11T11:37:16.000Z</time>
      </trkpt>
      <trkpt lat="44.59688" lon="5.60345">
        <ele>1147</ele>
        <time>2017-07-11T11:37:32.000Z</time>
      </trkpt>
      <trkpt lat="44.59678" lon="5.60329">
        <ele>1145.49</ele>
        <time>2017-07-11T11:37:42.000Z</time>
      </trkpt>
      <trkpt lat="44.59672" lon="5.60319">
        <ele>1145.7</ele>
        <time>2017-07-11T11:37:52.000Z</time>
      </trkpt>
      <trkpt lat="44.5966" lon="5.60317">
        <ele>1142.97</ele>
        <time>2017-07-11T11:38:02.000Z</time>
      </trkpt>
      <trkpt lat="44.59669" lon="5.60297">
        <ele>1151.48</ele>
        <time>2017-07-11T11:38:12.000Z</time>
      </trkpt>
      <trkpt lat="44.59659" lon="5.6029">
        <ele>1151.13</ele>
        <time>2017-07-11T11:38:23.000Z</time>
      </trkpt>
      <trkpt lat="44.5965" lon="5.60282">
        <ele>1151.49</ele>
        <time>2017-07-11T11:38:36.000Z</time>
      </trkpt>
      <trkpt lat="44.5964" lon="5.60279">
        <ele>1149.54</ele>
        <time>2017-07-11T11:39:02.000Z</time>
      </trkpt>
      <trkpt lat="44.59623" lon="5.60278">
        <ele>1144.11</ele>
        <time>2017-07-11T11:39:12.000Z</time>
      </trkpt>
      <trkpt lat="44.59612" lon="5.60274">
        <ele>1142.02</ele>
        <time>2017-07-11T11:39:22.000Z</time>
      </trkpt>
      <trkpt lat="44.59602" lon="5.60272">
        <ele>1139.63</ele>
        <time>2017-07-11T11:39:32.000Z</time>
      </trkpt>
      <trkpt lat="44.59592" lon="5.60269">
        <ele>1137.79</ele>
        <time>2017-07-11T11:39:42.000Z</time>
      </trkpt>
      <trkpt lat="44.5959" lon="5.60252">
        <ele>1141.42</ele>
        <time>2017-07-11T11:39:52.000Z</time>
      </trkpt>
      <trkpt lat="44.59579" lon="5.60243">
        <ele>1140.48</ele>
        <time>2017-07-11T11:40:02.000Z</time>
      </trkpt>
      <trkpt lat="44.59569" lon="5.60243">
        <ele>1137.96</ele>
        <time>2017-07-11T11:40:14.000Z</time>
      </trkpt>
      <trkpt lat="44.5956" lon="5.60247">
        <ele>1134.94</ele>
        <time>2017-07-11T11:40:26.000Z</time>
      </trkpt>
      <trkpt lat="44.59549" lon="5.60251">
        <ele>1131.81</ele>
        <time>2017-07-11T11:40:36.000Z</time>
      </trkpt>
      <trkpt lat="44.59539" lon="5.60247">
        <ele>1130.76</ele>
        <time>2017-07-11T11:40:52.000Z</time>
      </trkpt>
      <trkpt lat="44.59529" lon="5.60236">
        <ele>1130.67</ele>
        <time>2017-07-11T11:41:02.000Z</time>
      </trkpt>
      <trkpt lat="44.59519" lon="5.6023">
        <ele>1129.82</ele>
        <time>2017-07-11T11:41:14.000Z</time>
      </trkpt>
      <trkpt lat="44.59509" lon="5.60228">
        <ele>1127.9</ele>
        <time>2017-07-11T11:41:25.000Z</time>
      </trkpt>
      <trkpt lat="44.595" lon="5.60226">
        <ele>1126.2</ele>
        <time>2017-07-11T11:41:41.000Z</time>
      </trkpt>
      <trkpt lat="44.59493" lon="5.60206">
        <ele>1128.53</ele>
        <time>2017-07-11T11:41:51.000Z</time>
      </trkpt>
      <trkpt lat="44.59487" lon="5.60195">
        <ele>1129.1</ele>
        <time>2017-07-11T11:42:02.000Z</time>
      </trkpt>
      <trkpt lat="44.59479" lon="5.60187">
        <ele>1128.66</ele>
        <time>2017-07-11T11:42:13.000Z</time>
      </trkpt>
      <trkpt lat="44.59469" lon="5.60187">
        <ele>1126.21</ele>
        <time>2017-07-11T11:42:23.000Z</time>
      </trkpt>
      <trkpt lat="44.5946" lon="5.60187">
        <ele>1123.67</ele>
        <time>2017-07-11T11:42:33.000Z</time>
      </trkpt>
      <trkpt lat="44.5945" lon="5.60183">
        <ele>1121.54</ele>
        <time>2017-07-11T11:42:43.000Z</time>
      </trkpt>
      <trkpt lat="44.59445" lon="5.60195">
        <ele>1117.76</ele>
        <time>2017-07-11T11:42:57.000Z</time>
      </trkpt>
      <trkpt lat="44.59452" lon="5.60202">
        <ele>1118.3</ele>
        <time>2017-07-11T11:43:08.000Z</time>
      </trkpt>
      <trkpt lat="44.5946" lon="5.6021">
        <ele>1118.79</ele>
        <time>2017-07-11T11:43:21.000Z</time>
      </trkpt>
      <trkpt lat="44.59468" lon="5.60217">
        <ele>1119.5</ele>
        <time>2017-07-11T11:43:32.000Z</time>
      </trkpt>
      <trkpt lat="44.59476" lon="5.60223">
        <ele>1120.43</ele>
        <time>2017-07-11T11:43:52.000Z</time>
      </trkpt>
      <trkpt lat="44.59484" lon="5.60232">
        <ele>1120.97</ele>
        <time>2017-07-11T11:44:02.000Z</time>
      </trkpt>
      <trkpt lat="44.59474" lon="5.60233">
        <ele>1118.01</ele>
        <time>2017-07-11T11:44:33.000Z</time>
      </trkpt>
      <trkpt lat="44.59465" lon="5.60227">
        <ele>1116.69</ele>
        <time>2017-07-11T11:44:43.000Z</time>
      </trkpt>
      <trkpt lat="44.59456" lon="5.60225">
        <ele>1114.57</ele>
        <time>2017-07-11T11:44:58.000Z</time>
      </trkpt>
      <trkpt lat="44.59444" lon="5.60223">
        <ele>1111.8</ele>
        <time>2017-07-11T11:45:08.000Z</time>
      </trkpt>
      <trkpt lat="44.59435" lon="5.60218">
        <ele>1110.52</ele>
        <time>2017-07-11T11:45:18.000Z</time>
      </trkpt>
      <trkpt lat="44.59427" lon="5.60213">
        <ele>1109.18</ele>
        <time>2017-07-11T11:45:31.000Z</time>
      </trkpt>
      <trkpt lat="44.59417" lon="5.602">
        <ele>1109.42</ele>
        <time>2017-07-11T11:45:41.000Z</time>
      </trkpt>
      <trkpt lat="44.59411" lon="5.6019">
        <ele>1109.88</ele>
        <time>2017-07-11T11:45:52.000Z</time>
      </trkpt>
      <trkpt lat="44.59409" lon="5.60176">
        <ele>1111.89</ele>
        <time>2017-07-11T11:46:02.000Z</time>
      </trkpt>
      <trkpt lat="44.59407" lon="5.6016">
        <ele>1113.18</ele>
        <time>2017-07-11T11:46:12.000Z</time>
      </trkpt>
      <trkpt lat="44.59403" lon="5.60148">
        <ele>1112.78</ele>
        <time>2017-07-11T11:46:22.000Z</time>
      </trkpt>
      <trkpt lat="44.59393" lon="5.60143">
        <ele>1110.62</ele>
        <time>2017-07-11T11:46:35.000Z</time>
      </trkpt>
      <trkpt lat="44.59384" lon="5.6014">
        <ele>1108.51</ele>
        <time>2017-07-11T11:46:46.000Z</time>
      </trkpt>
      <trkpt lat="44.59378" lon="5.6013">
        <ele>1107.39</ele>
        <time>2017-07-11T11:46:59.000Z</time>
      </trkpt>
      <trkpt lat="44.5937" lon="5.60118">
        <ele>1106.24</ele>
        <time>2017-07-11T11:47:09.000Z</time>
      </trkpt>
      <trkpt lat="44.59363" lon="5.60108">
        <ele>1105.2</ele>
        <time>2017-07-11T11:47:25.000Z</time>
      </trkpt>
      <trkpt lat="44.59354" lon="5.60106">
        <ele>1103.3</ele>
        <time>2017-07-11T11:47:35.000Z</time>
      </trkpt>
      <trkpt lat="44.59346" lon="5.601">
        <ele>1101.83</ele>
        <time>2017-07-11T11:47:51.000Z</time>
      </trkpt>
      <trkpt lat="44.59338" lon="5.6009">
        <ele>1100.64</ele>
        <time>2017-07-11T11:48:01.000Z</time>
      </trkpt>
      <trkpt lat="44.59337" lon="5.60077">
        <ele>1101.05</ele>
        <time>2017-07-11T11:48:14.000Z</time>
      </trkpt>
      <trkpt lat="44.59339" lon="5.60071">
        <ele>1101.58</ele>
        <time>2017-07-11T11:51:55.000Z</time>
      </trkpt>
    </trkseg>
  </trk>
</gpx>